<?xml version="1.0" encoding="UTF-8" standalone="no" ?>
<gpx xmlns="http://www.topografix.com/GPX/1/1" xmlns:xsi="http://www.w3.org/2001/XMLSchema-instance" xsi:schemaLocation="http://www.topografix.com/GPX/1/1 http://www.topografix.com/GPX/1/1/gpx.xsd" version="1.1" creator="VisuGPX - https://www.visugpx.com">
  <metadata>
    <name>Büren a. A.</name>
  </metadata>
  <trk>
    <name><![CDATA[Büren a. A._1]]></name>
    <extensions>
      <line xmlns="http://www.topografix.com/GPX/gpx_style/0/2">
        <color>0000FF</color>
        <width>4</width>
      </line>
    </extensions>
    <trkseg>
      <trkpt lat="47.13297" lon="7.32157">
        <ele>431.17</ele>
        <time>2021-04-09T08:00:00.000Z</time>
      </trkpt>
      <trkpt lat="47.13301" lon="7.32179">
        <ele>431.59</ele>
        <time>2021-04-09T08:00:22.659Z</time>
      </trkpt>
      <trkpt lat="47.13312" lon="7.32184">
        <ele>431.5</ele>
        <time>2021-04-09T08:00:27.050Z</time>
      </trkpt>
      <trkpt lat="47.13321" lon="7.32192">
        <ele>431.7</ele>
        <time>2021-04-09T08:00:41.053Z</time>
      </trkpt>
      <trkpt lat="47.13331" lon="7.32203">
        <ele>431.77</ele>
        <time>2021-04-09T08:00:55.528Z</time>
      </trkpt>
      <trkpt lat="47.13339" lon="7.32211">
        <ele>431.64</ele>
        <time>2021-04-09T08:00:58.954Z</time>
      </trkpt>
      <trkpt lat="47.13338" lon="7.32211">
        <ele>431.64</ele>
        <time>2021-04-09T08:01:00.053Z</time>
      </trkpt>
      <trkpt lat="47.13373" lon="7.32251">
        <ele>431.51</ele>
        <time>2021-04-09T08:01:46.700Z</time>
      </trkpt>
      <trkpt lat="47.13408" lon="7.32293">
        <ele>431.34</ele>
        <time>2021-04-09T08:02:33.666Z</time>
      </trkpt>
      <trkpt lat="47.13418" lon="7.32306">
        <ele>431.13</ele>
        <time>2021-04-09T08:02:38.260Z</time>
      </trkpt>
      <trkpt lat="47.13429" lon="7.32322">
        <ele>431.29</ele>
        <time>2021-04-09T08:02:57.053Z</time>
      </trkpt>
      <trkpt lat="47.13434" lon="7.32329">
        <ele>431.27</ele>
        <time>2021-04-09T08:03:04.322Z</time>
      </trkpt>
      <trkpt lat="47.13444" lon="7.3235">
        <ele>431.18</ele>
        <time>2021-04-09T08:03:22.089Z</time>
      </trkpt>
      <trkpt lat="47.13449" lon="7.32363">
        <ele>431.19</ele>
        <time>2021-04-09T08:03:33.360Z</time>
      </trkpt>
      <trkpt lat="47.13453" lon="7.32376">
        <ele>431.2</ele>
        <time>2021-04-09T08:03:44.133Z</time>
      </trkpt>
      <trkpt lat="47.13456" lon="7.32391">
        <ele>431.16</ele>
        <time>2021-04-09T08:03:55.190Z</time>
      </trkpt>
      <trkpt lat="47.13458" lon="7.32406">
        <ele>431.24</ele>
        <time>2021-04-09T08:04:07.489Z</time>
      </trkpt>
      <trkpt lat="47.13459" lon="7.32418">
        <ele>431.15</ele>
        <time>2021-04-09T08:04:10.496Z</time>
      </trkpt>
      <trkpt lat="47.1346" lon="7.32432">
        <ele>431.22</ele>
        <time>2021-04-09T08:04:21.780Z</time>
      </trkpt>
      <trkpt lat="47.1346" lon="7.32471">
        <ele>430.93</ele>
        <time>2021-04-09T08:04:31.485Z</time>
      </trkpt>
      <trkpt lat="47.13461" lon="7.32483">
        <ele>430.94</ele>
        <time>2021-04-09T08:04:40.629Z</time>
      </trkpt>
      <trkpt lat="47.13462" lon="7.32492">
        <ele>430.97</ele>
        <time>2021-04-09T08:04:47.765Z</time>
      </trkpt>
      <trkpt lat="47.13465" lon="7.32502">
        <ele>431.03</ele>
        <time>2021-04-09T08:04:56.592Z</time>
      </trkpt>
      <trkpt lat="47.13469" lon="7.32514">
        <ele>431.16</ele>
        <time>2021-04-09T08:05:08.093Z</time>
      </trkpt>
      <trkpt lat="47.13475" lon="7.32528">
        <ele>431.64</ele>
        <time>2021-04-09T08:05:28.401Z</time>
      </trkpt>
      <trkpt lat="47.13485" lon="7.3253">
        <ele>431.76</ele>
        <time>2021-04-09T08:05:40.853Z</time>
      </trkpt>
      <trkpt lat="47.13492" lon="7.3253">
        <ele>431.57</ele>
        <time>2021-04-09T08:05:42.964Z</time>
      </trkpt>
      <trkpt lat="47.13497" lon="7.32529">
        <ele>431.53</ele>
        <time>2021-04-09T08:05:44.885Z</time>
      </trkpt>
      <trkpt lat="47.13505" lon="7.32525">
        <ele>431.4</ele>
        <time>2021-04-09T08:05:47.805Z</time>
      </trkpt>
      <trkpt lat="47.13515" lon="7.32521">
        <ele>430.98</ele>
        <time>2021-04-09T08:05:50.535Z</time>
      </trkpt>
      <trkpt lat="47.13528" lon="7.32516">
        <ele>430.66</ele>
        <time>2021-04-09T08:05:54.740Z</time>
      </trkpt>
      <trkpt lat="47.13539" lon="7.32512">
        <ele>430.86</ele>
        <time>2021-04-09T08:06:09.600Z</time>
      </trkpt>
      <trkpt lat="47.13534" lon="7.32611">
        <ele>431.13</ele>
        <time>2021-04-09T08:07:26.670Z</time>
      </trkpt>
      <trkpt lat="47.13534" lon="7.32611">
        <ele>431.13</ele>
        <time>2021-04-09T08:07:26.670Z</time>
      </trkpt>
      <trkpt lat="47.13531" lon="7.32669">
        <ele>431.41</ele>
        <time>2021-04-09T08:08:13.189Z</time>
      </trkpt>
      <trkpt lat="47.13528" lon="7.32713">
        <ele>431.29</ele>
        <time>2021-04-09T08:08:44.357Z</time>
      </trkpt>
      <trkpt lat="47.13527" lon="7.32736">
        <ele>431.4</ele>
        <time>2021-04-09T08:09:02.778Z</time>
      </trkpt>
      <trkpt lat="47.13527" lon="7.32739">
        <ele>431.36</ele>
        <time>2021-04-09T08:09:03.449Z</time>
      </trkpt>
      <trkpt lat="47.13535" lon="7.32742">
        <ele>431.21</ele>
        <time>2021-04-09T08:09:06.206Z</time>
      </trkpt>
      <trkpt lat="47.13539" lon="7.32743">
        <ele>431.13</ele>
        <time>2021-04-09T08:09:07.537Z</time>
      </trkpt>
      <trkpt lat="47.13546" lon="7.32748">
        <ele>431.09</ele>
        <time>2021-04-09T08:09:15.469Z</time>
      </trkpt>
      <trkpt lat="47.13553" lon="7.32752">
        <ele>431.21</ele>
        <time>2021-04-09T08:09:25.142Z</time>
      </trkpt>
      <trkpt lat="47.13561" lon="7.32755">
        <ele>431</ele>
        <time>2021-04-09T08:09:27.679Z</time>
      </trkpt>
      <trkpt lat="47.13564" lon="7.32757">
        <ele>431.17</ele>
        <time>2021-04-09T08:09:34.079Z</time>
      </trkpt>
      <trkpt lat="47.13568" lon="7.32761">
        <ele>431.23</ele>
        <time>2021-04-09T08:09:40.079Z</time>
      </trkpt>
      <trkpt lat="47.13571" lon="7.32765">
        <ele>431.29</ele>
        <time>2021-04-09T08:09:45.231Z</time>
      </trkpt>
      <trkpt lat="47.13573" lon="7.32771">
        <ele>431.32</ele>
        <time>2021-04-09T08:09:50.550Z</time>
      </trkpt>
      <trkpt lat="47.13574" lon="7.32777">
        <ele>431.29</ele>
        <time>2021-04-09T08:09:54.715Z</time>
      </trkpt>
      <trkpt lat="47.13574" lon="7.32784">
        <ele>431.34</ele>
        <time>2021-04-09T08:10:00.507Z</time>
      </trkpt>
      <trkpt lat="47.13573" lon="7.32793">
        <ele>430.93</ele>
        <time>2021-04-09T08:10:01.823Z</time>
      </trkpt>
      <trkpt lat="47.13571" lon="7.32804">
        <ele>430.55</ele>
        <time>2021-04-09T08:10:03.711Z</time>
      </trkpt>
      <trkpt lat="47.13571" lon="7.32815">
        <ele>430.13</ele>
        <time>2021-04-09T08:10:05.429Z</time>
      </trkpt>
      <trkpt lat="47.13573" lon="7.32823">
        <ele>429.92</ele>
        <time>2021-04-09T08:10:07.022Z</time>
      </trkpt>
      <trkpt lat="47.13576" lon="7.32833">
        <ele>429.46</ele>
        <time>2021-04-09T08:10:08.651Z</time>
      </trkpt>
      <trkpt lat="47.13592" lon="7.32869">
        <ele>428.73</ele>
        <time>2021-04-09T08:10:17.688Z</time>
      </trkpt>
      <trkpt lat="47.13596" lon="7.32876">
        <ele>428.7</ele>
        <time>2021-04-09T08:10:24.055Z</time>
      </trkpt>
      <trkpt lat="47.13596" lon="7.32875">
        <ele>428.7</ele>
        <time>2021-04-09T08:10:24.803Z</time>
      </trkpt>
      <trkpt lat="47.13598" lon="7.32879">
        <ele>428.68</ele>
        <time>2021-04-09T08:10:28.207Z</time>
      </trkpt>
      <trkpt lat="47.13603" lon="7.32887">
        <ele>428.59</ele>
        <time>2021-04-09T08:10:30.866Z</time>
      </trkpt>
      <trkpt lat="47.13609" lon="7.32891">
        <ele>428.48</ele>
        <time>2021-04-09T08:10:33.106Z</time>
      </trkpt>
      <trkpt lat="47.13616" lon="7.32893">
        <ele>428.37</ele>
        <time>2021-04-09T08:10:35.569Z</time>
      </trkpt>
      <trkpt lat="47.13622" lon="7.32892">
        <ele>428.45</ele>
        <time>2021-04-09T08:10:43.125Z</time>
      </trkpt>
      <trkpt lat="47.1363" lon="7.3289">
        <ele>428.41</ele>
        <time>2021-04-09T08:10:51.420Z</time>
      </trkpt>
      <trkpt lat="47.13637" lon="7.32886">
        <ele>428.66</ele>
        <time>2021-04-09T08:11:03.299Z</time>
      </trkpt>
      <trkpt lat="47.13645" lon="7.32883">
        <ele>428.59</ele>
        <time>2021-04-09T08:11:06.420Z</time>
      </trkpt>
      <trkpt lat="47.13652" lon="7.32882">
        <ele>428.86</ele>
        <time>2021-04-09T08:11:18.346Z</time>
      </trkpt>
      <trkpt lat="47.13659" lon="7.32883">
        <ele>428.85</ele>
        <time>2021-04-09T08:11:25.913Z</time>
      </trkpt>
      <trkpt lat="47.13666" lon="7.32883">
        <ele>429.06</ele>
        <time>2021-04-09T08:11:36.525Z</time>
      </trkpt>
      <trkpt lat="47.13671" lon="7.32883">
        <ele>428.99</ele>
        <time>2021-04-09T08:11:38.284Z</time>
      </trkpt>
      <trkpt lat="47.13674" lon="7.32882">
        <ele>429.1</ele>
        <time>2021-04-09T08:11:43.313Z</time>
      </trkpt>
      <trkpt lat="47.13678" lon="7.32881">
        <ele>429.07</ele>
        <time>2021-04-09T08:11:44.869Z</time>
      </trkpt>
      <trkpt lat="47.13696" lon="7.32868">
        <ele>429.53</ele>
        <time>2021-04-09T08:12:12.783Z</time>
      </trkpt>
      <trkpt lat="47.13709" lon="7.3286">
        <ele>430.14</ele>
        <time>2021-04-09T08:12:38.456Z</time>
      </trkpt>
      <trkpt lat="47.13722" lon="7.32854">
        <ele>430.38</ele>
        <time>2021-04-09T08:12:56.318Z</time>
      </trkpt>
      <trkpt lat="47.13736" lon="7.32848">
        <ele>430.35</ele>
        <time>2021-04-09T08:13:11.861Z</time>
      </trkpt>
      <trkpt lat="47.13748" lon="7.32841">
        <ele>430.4</ele>
        <time>2021-04-09T08:13:26.577Z</time>
      </trkpt>
      <trkpt lat="47.13758" lon="7.32834">
        <ele>430.64</ele>
        <time>2021-04-09T08:13:41.770Z</time>
      </trkpt>
      <trkpt lat="47.13769" lon="7.32825">
        <ele>431.01</ele>
        <time>2021-04-09T08:14:00.709Z</time>
      </trkpt>
      <trkpt lat="47.13786" lon="7.3281">
        <ele>431.05</ele>
        <time>2021-04-09T08:14:22.918Z</time>
      </trkpt>
      <trkpt lat="47.13807" lon="7.32791">
        <ele>430.87</ele>
        <time>2021-04-09T08:14:32.389Z</time>
      </trkpt>
      <trkpt lat="47.13844" lon="7.32761">
        <ele>430.84</ele>
        <time>2021-04-09T08:15:18.345Z</time>
      </trkpt>
      <trkpt lat="47.1387" lon="7.32742">
        <ele>430.83</ele>
        <time>2021-04-09T08:15:50.100Z</time>
      </trkpt>
      <trkpt lat="47.13904" lon="7.32714">
        <ele>432.13</ele>
        <time>2021-04-09T08:16:51.798Z</time>
      </trkpt>
      <trkpt lat="47.13911" lon="7.32708">
        <ele>432.72</ele>
        <time>2021-04-09T08:17:10.113Z</time>
      </trkpt>
      <trkpt lat="47.13919" lon="7.32701">
        <ele>432.91</ele>
        <time>2021-04-09T08:17:22.702Z</time>
      </trkpt>
      <trkpt lat="47.14002" lon="7.32645">
        <ele>432.77</ele>
        <time>2021-04-09T08:19:00.802Z</time>
      </trkpt>
      <trkpt lat="47.14006" lon="7.32643">
        <ele>432.52</ele>
        <time>2021-04-09T08:19:01.749Z</time>
      </trkpt>
      <trkpt lat="47.14009" lon="7.32665">
        <ele>432.24</ele>
        <time>2021-04-09T08:19:06.836Z</time>
      </trkpt>
      <trkpt lat="47.14012" lon="7.32681">
        <ele>431.73</ele>
        <time>2021-04-09T08:19:09.685Z</time>
      </trkpt>
      <trkpt lat="47.14016" lon="7.32695">
        <ele>431.44</ele>
        <time>2021-04-09T08:19:12.769Z</time>
      </trkpt>
      <trkpt lat="47.14026" lon="7.32728">
        <ele>431.22</ele>
        <time>2021-04-09T08:19:21.997Z</time>
      </trkpt>
      <trkpt lat="47.14026" lon="7.32727">
        <ele>431.22</ele>
        <time>2021-04-09T08:19:22.744Z</time>
      </trkpt>
      <trkpt lat="47.14036" lon="7.3276">
        <ele>431</ele>
        <time>2021-04-09T08:19:31.972Z</time>
      </trkpt>
      <trkpt lat="47.14062" lon="7.32847">
        <ele>430.77</ele>
        <time>2021-04-09T08:20:39.363Z</time>
      </trkpt>
      <trkpt lat="47.14121" lon="7.3304">
        <ele>430.25</ele>
        <time>2021-04-09T08:23:09.301Z</time>
      </trkpt>
      <trkpt lat="47.14188" lon="7.33254">
        <ele>429.85</ele>
        <time>2021-04-09T08:25:58.985Z</time>
      </trkpt>
      <trkpt lat="47.14212" lon="7.33326">
        <ele>429.84</ele>
        <time>2021-04-09T08:26:58.778Z</time>
      </trkpt>
      <trkpt lat="47.14251" lon="7.33284">
        <ele>430.14</ele>
        <time>2021-04-09T08:27:55.132Z</time>
      </trkpt>
      <trkpt lat="47.14261" lon="7.33272">
        <ele>430.15</ele>
        <time>2021-04-09T08:28:09.425Z</time>
      </trkpt>
      <trkpt lat="47.14264" lon="7.33269">
        <ele>430.16</ele>
        <time>2021-04-09T08:28:13.517Z</time>
      </trkpt>
      <trkpt lat="47.14284" lon="7.33246">
        <ele>429.91</ele>
        <time>2021-04-09T08:28:22.939Z</time>
      </trkpt>
      <trkpt lat="47.14316" lon="7.33211">
        <ele>429.95</ele>
        <time>2021-04-09T08:29:07.195Z</time>
      </trkpt>
      <trkpt lat="47.14326" lon="7.33199">
        <ele>430.02</ele>
        <time>2021-04-09T08:29:22.129Z</time>
      </trkpt>
      <trkpt lat="47.14336" lon="7.33185">
        <ele>429.91</ele>
        <time>2021-04-09T08:29:27.384Z</time>
      </trkpt>
      <trkpt lat="47.1435" lon="7.33162">
        <ele>429.69</ele>
        <time>2021-04-09T08:29:35.108Z</time>
      </trkpt>
      <trkpt lat="47.14367" lon="7.33132">
        <ele>429.9</ele>
        <time>2021-04-09T08:30:06.588Z</time>
      </trkpt>
      <trkpt lat="47.14385" lon="7.33104">
        <ele>429.91</ele>
        <time>2021-04-09T08:30:35.499Z</time>
      </trkpt>
      <trkpt lat="47.14398" lon="7.33085">
        <ele>430.3</ele>
        <time>2021-04-09T08:31:00.531Z</time>
      </trkpt>
      <trkpt lat="47.14414" lon="7.33063">
        <ele>430.83</ele>
        <time>2021-04-09T08:31:31.473Z</time>
      </trkpt>
      <trkpt lat="47.14429" lon="7.3306">
        <ele>431.06</ele>
        <time>2021-04-09T08:31:50.807Z</time>
      </trkpt>
      <trkpt lat="47.14445" lon="7.33058">
        <ele>430.86</ele>
        <time>2021-04-09T08:31:56.565Z</time>
      </trkpt>
      <trkpt lat="47.14459" lon="7.33057">
        <ele>430.79</ele>
        <time>2021-04-09T08:32:10.880Z</time>
      </trkpt>
      <trkpt lat="47.14471" lon="7.33058">
        <ele>430.84</ele>
        <time>2021-04-09T08:32:24.618Z</time>
      </trkpt>
      <trkpt lat="47.14484" lon="7.33061">
        <ele>430.93</ele>
        <time>2021-04-09T08:32:40.052Z</time>
      </trkpt>
      <trkpt lat="47.14496" lon="7.33064">
        <ele>431.05</ele>
        <time>2021-04-09T08:32:54.764Z</time>
      </trkpt>
      <trkpt lat="47.1451" lon="7.33071">
        <ele>430.98</ele>
        <time>2021-04-09T08:33:09.922Z</time>
      </trkpt>
      <trkpt lat="47.1452" lon="7.33076">
        <ele>430.96</ele>
        <time>2021-04-09T08:33:21.207Z</time>
      </trkpt>
      <trkpt lat="47.14528" lon="7.33083">
        <ele>430.8</ele>
        <time>2021-04-09T08:33:24.354Z</time>
      </trkpt>
      <trkpt lat="47.14534" lon="7.33093">
        <ele>430.73</ele>
        <time>2021-04-09T08:33:27.817Z</time>
      </trkpt>
      <trkpt lat="47.1454" lon="7.33103">
        <ele>430.62</ele>
        <time>2021-04-09T08:33:31.083Z</time>
      </trkpt>
      <trkpt lat="47.14547" lon="7.33119">
        <ele>430.46</ele>
        <time>2021-04-09T08:33:35.729Z</time>
      </trkpt>
      <trkpt lat="47.14552" lon="7.33133">
        <ele>430.12</ele>
        <time>2021-04-09T08:33:38.823Z</time>
      </trkpt>
      <trkpt lat="47.14553" lon="7.33148">
        <ele>429.85</ele>
        <time>2021-04-09T08:33:41.941Z</time>
      </trkpt>
      <trkpt lat="47.14553" lon="7.33166">
        <ele>429.53</ele>
        <time>2021-04-09T08:33:45.674Z</time>
      </trkpt>
      <trkpt lat="47.14551" lon="7.33182">
        <ele>429.78</ele>
        <time>2021-04-09T08:34:01.014Z</time>
      </trkpt>
      <trkpt lat="47.14546" lon="7.33214">
        <ele>429.81</ele>
        <time>2021-04-09T08:34:25.871Z</time>
      </trkpt>
      <trkpt lat="47.14538" lon="7.33272">
        <ele>430.32</ele>
        <time>2021-04-09T08:35:15.935Z</time>
      </trkpt>
      <trkpt lat="47.1453" lon="7.33322">
        <ele>430.49</ele>
        <time>2021-04-09T08:35:56.136Z</time>
      </trkpt>
      <trkpt lat="47.1453" lon="7.33322">
        <ele>430.49</ele>
        <time>2021-04-09T08:35:56.136Z</time>
      </trkpt>
      <trkpt lat="47.14528" lon="7.33336">
        <ele>430.67</ele>
        <time>2021-04-09T08:36:09.016Z</time>
      </trkpt>
      <trkpt lat="47.14528" lon="7.33344">
        <ele>430.57</ele>
        <time>2021-04-09T08:36:10.829Z</time>
      </trkpt>
      <trkpt lat="47.1453" lon="7.33355">
        <ele>430.6</ele>
        <time>2021-04-09T08:36:19.657Z</time>
      </trkpt>
      <trkpt lat="47.14532" lon="7.33365">
        <ele>430.53</ele>
        <time>2021-04-09T08:36:22.286Z</time>
      </trkpt>
      <trkpt lat="47.14534" lon="7.33374">
        <ele>430.44</ele>
        <time>2021-04-09T08:36:24.551Z</time>
      </trkpt>
      <trkpt lat="47.14536" lon="7.33378">
        <ele>430.54</ele>
        <time>2021-04-09T08:36:29.646Z</time>
      </trkpt>
      <trkpt lat="47.14539" lon="7.33381">
        <ele>430.57</ele>
        <time>2021-04-09T08:36:33.961Z</time>
      </trkpt>
      <trkpt lat="47.14543" lon="7.33384">
        <ele>430.54</ele>
        <time>2021-04-09T08:36:38.440Z</time>
      </trkpt>
      <trkpt lat="47.14553" lon="7.33389">
        <ele>430.51</ele>
        <time>2021-04-09T08:36:49.568Z</time>
      </trkpt>
      <trkpt lat="47.14565" lon="7.33395">
        <ele>430.41</ele>
        <time>2021-04-09T08:36:54.397Z</time>
      </trkpt>
      <trkpt lat="47.14574" lon="7.33402">
        <ele>430.37</ele>
        <time>2021-04-09T08:37:04.955Z</time>
      </trkpt>
      <trkpt lat="47.14579" lon="7.33408">
        <ele>430.36</ele>
        <time>2021-04-09T08:37:11.887Z</time>
      </trkpt>
      <trkpt lat="47.14588" lon="7.33425">
        <ele>430.34</ele>
        <time>2021-04-09T08:37:27.666Z</time>
      </trkpt>
      <trkpt lat="47.146" lon="7.33447">
        <ele>430.21</ele>
        <time>2021-04-09T08:37:46.770Z</time>
      </trkpt>
      <trkpt lat="47.14604" lon="7.33456">
        <ele>430.13</ele>
        <time>2021-04-09T08:37:49.444Z</time>
      </trkpt>
      <trkpt lat="47.14608" lon="7.33471">
        <ele>430.3</ele>
        <time>2021-04-09T08:38:03.487Z</time>
      </trkpt>
      <trkpt lat="47.14612" lon="7.33482">
        <ele>430.22</ele>
        <time>2021-04-09T08:38:06.652Z</time>
      </trkpt>
      <trkpt lat="47.14616" lon="7.3349">
        <ele>430.13</ele>
        <time>2021-04-09T08:38:09.047Z</time>
      </trkpt>
      <trkpt lat="47.14621" lon="7.33496">
        <ele>430.26</ele>
        <time>2021-04-09T08:38:17.748Z</time>
      </trkpt>
      <trkpt lat="47.14624" lon="7.335">
        <ele>430.18</ele>
        <time>2021-04-09T08:38:19.076Z</time>
      </trkpt>
      <trkpt lat="47.14629" lon="7.33503">
        <ele>430.23</ele>
        <time>2021-04-09T08:38:25.563Z</time>
      </trkpt>
      <trkpt lat="47.14638" lon="7.33505">
        <ele>430.29</ele>
        <time>2021-04-09T08:38:36.214Z</time>
      </trkpt>
      <trkpt lat="47.14663" lon="7.33514">
        <ele>430.48</ele>
        <time>2021-04-09T08:39:06.564Z</time>
      </trkpt>
      <trkpt lat="47.14685" lon="7.33521">
        <ele>430.25</ele>
        <time>2021-04-09T08:39:14.874Z</time>
      </trkpt>
      <trkpt lat="47.1471" lon="7.33529">
        <ele>430.38</ele>
        <time>2021-04-09T08:39:44.377Z</time>
      </trkpt>
      <trkpt lat="47.14758" lon="7.33541">
        <ele>430.41</ele>
        <time>2021-04-09T08:40:38.211Z</time>
      </trkpt>
      <trkpt lat="47.14766" lon="7.33543">
        <ele>430.41</ele>
        <time>2021-04-09T08:40:47.133Z</time>
      </trkpt>
      <trkpt lat="47.14805" lon="7.33544">
        <ele>430.35</ele>
        <time>2021-04-09T08:41:29.030Z</time>
      </trkpt>
      <trkpt lat="47.14846" lon="7.33546">
        <ele>430.25</ele>
        <time>2021-04-09T08:42:12.508Z</time>
      </trkpt>
      <trkpt lat="47.14864" lon="7.33547">
        <ele>430.3</ele>
        <time>2021-04-09T08:42:32.828Z</time>
      </trkpt>
      <trkpt lat="47.1489" lon="7.33551">
        <ele>430.17</ele>
        <time>2021-04-09T08:42:59.535Z</time>
      </trkpt>
      <trkpt lat="47.14914" lon="7.33553">
        <ele>430.07</ele>
        <time>2021-04-09T08:43:24.380Z</time>
      </trkpt>
      <trkpt lat="47.14923" lon="7.33556">
        <ele>430.17</ele>
        <time>2021-04-09T08:43:35.644Z</time>
      </trkpt>
      <trkpt lat="47.14966" lon="7.33572">
        <ele>430.1</ele>
        <time>2021-04-09T08:44:23.259Z</time>
      </trkpt>
      <trkpt lat="47.14978" lon="7.33578">
        <ele>429.99</ele>
        <time>2021-04-09T08:44:28.036Z</time>
      </trkpt>
      <trkpt lat="47.15" lon="7.3359">
        <ele>430.02</ele>
        <time>2021-04-09T08:44:54.140Z</time>
      </trkpt>
      <trkpt lat="47.15013" lon="7.336">
        <ele>429.91</ele>
        <time>2021-04-09T08:44:59.759Z</time>
      </trkpt>
      <trkpt lat="47.15063" lon="7.33644">
        <ele>429.96</ele>
        <time>2021-04-09T08:46:04.331Z</time>
      </trkpt>
      <trkpt lat="47.15082" lon="7.33661">
        <ele>429.94</ele>
        <time>2021-04-09T08:46:28.452Z</time>
      </trkpt>
      <trkpt lat="47.15106" lon="7.33685">
        <ele>430.09</ele>
        <time>2021-04-09T08:47:01.947Z</time>
      </trkpt>
      <trkpt lat="47.15151" lon="7.33728">
        <ele>430.29</ele>
        <time>2021-04-09T08:48:03.036Z</time>
      </trkpt>
      <trkpt lat="47.15155" lon="7.33732">
        <ele>430.16</ele>
        <time>2021-04-09T08:48:04.499Z</time>
      </trkpt>
      <trkpt lat="47.15159" lon="7.33739">
        <ele>430.07</ele>
        <time>2021-04-09T08:48:06.672Z</time>
      </trkpt>
      <trkpt lat="47.15166" lon="7.33753">
        <ele>430.05</ele>
        <time>2021-04-09T08:48:19.336Z</time>
      </trkpt>
      <trkpt lat="47.15194" lon="7.33809">
        <ele>429.82</ele>
        <time>2021-04-09T08:49:07.700Z</time>
      </trkpt>
      <trkpt lat="47.15204" lon="7.33826">
        <ele>429.81</ele>
        <time>2021-04-09T08:49:24.339Z</time>
      </trkpt>
      <trkpt lat="47.15233" lon="7.33874">
        <ele>429.82</ele>
        <time>2021-04-09T08:50:12.445Z</time>
      </trkpt>
      <trkpt lat="47.15237" lon="7.33882">
        <ele>429.68</ele>
        <time>2021-04-09T08:50:14.634Z</time>
      </trkpt>
      <trkpt lat="47.15241" lon="7.33894">
        <ele>429.66</ele>
        <time>2021-04-09T08:50:24.300Z</time>
      </trkpt>
      <trkpt lat="47.15256" lon="7.33944">
        <ele>429.8</ele>
        <time>2021-04-09T08:51:06.619Z</time>
      </trkpt>
      <trkpt lat="47.1526" lon="7.3396">
        <ele>429.81</ele>
        <time>2021-04-09T08:51:19.466Z</time>
      </trkpt>
      <trkpt lat="47.1526" lon="7.33972">
        <ele>429.7</ele>
        <time>2021-04-09T08:51:22.355Z</time>
      </trkpt>
      <trkpt lat="47.15259" lon="7.33984">
        <ele>429.74</ele>
        <time>2021-04-09T08:51:31.815Z</time>
      </trkpt>
      <trkpt lat="47.15257" lon="7.33996">
        <ele>429.86</ele>
        <time>2021-04-09T08:51:42.443Z</time>
      </trkpt>
      <trkpt lat="47.15257" lon="7.34005">
        <ele>429.78</ele>
        <time>2021-04-09T08:51:44.621Z</time>
      </trkpt>
      <trkpt lat="47.15261" lon="7.3402">
        <ele>429.94</ele>
        <time>2021-04-09T08:51:58.527Z</time>
      </trkpt>
      <trkpt lat="47.15268" lon="7.34036">
        <ele>429.55</ele>
        <time>2021-04-09T08:52:02.307Z</time>
      </trkpt>
      <trkpt lat="47.15271" lon="7.34045">
        <ele>429.7</ele>
        <time>2021-04-09T08:52:11.693Z</time>
      </trkpt>
      <trkpt lat="47.15272" lon="7.34055">
        <ele>429.6</ele>
        <time>2021-04-09T08:52:14.093Z</time>
      </trkpt>
      <trkpt lat="47.15273" lon="7.34065">
        <ele>429.73</ele>
        <time>2021-04-09T08:52:23.233Z</time>
      </trkpt>
      <trkpt lat="47.15272" lon="7.34076">
        <ele>429.63</ele>
        <time>2021-04-09T08:52:25.912Z</time>
      </trkpt>
      <trkpt lat="47.15269" lon="7.34091">
        <ele>429.88</ele>
        <time>2021-04-09T08:52:40.811Z</time>
      </trkpt>
      <trkpt lat="47.15268" lon="7.34101">
        <ele>429.96</ele>
        <time>2021-04-09T08:52:49.270Z</time>
      </trkpt>
      <trkpt lat="47.15269" lon="7.34111">
        <ele>430.02</ele>
        <time>2021-04-09T08:52:57.484Z</time>
      </trkpt>
      <trkpt lat="47.15273" lon="7.34128">
        <ele>430.05</ele>
        <time>2021-04-09T08:53:11.242Z</time>
      </trkpt>
      <trkpt lat="47.15268" lon="7.34131">
        <ele>430.02</ele>
        <time>2021-04-09T08:53:16.714Z</time>
      </trkpt>
      <trkpt lat="47.15263" lon="7.34136">
        <ele>429.29</ele>
        <time>2021-04-09T08:53:18.108Z</time>
      </trkpt>
      <trkpt lat="47.15259" lon="7.34141">
        <ele>429.05</ele>
        <time>2021-04-09T08:53:19.426Z</time>
      </trkpt>
      <trkpt lat="47.15257" lon="7.34148">
        <ele>428.69</ele>
        <time>2021-04-09T08:53:20.617Z</time>
      </trkpt>
      <trkpt lat="47.15257" lon="7.34154">
        <ele>428.69</ele>
        <time>2021-04-09T08:53:25.103Z</time>
      </trkpt>
      <trkpt lat="47.15259" lon="7.34164">
        <ele>428.81</ele>
        <time>2021-04-09T08:53:34.327Z</time>
      </trkpt>
      <trkpt lat="47.1526" lon="7.34169">
        <ele>428.81</ele>
        <time>2021-04-09T08:53:38.223Z</time>
      </trkpt>
      <trkpt lat="47.15261" lon="7.34179">
        <ele>428.93</ele>
        <time>2021-04-09T08:53:47.219Z</time>
      </trkpt>
      <trkpt lat="47.15264" lon="7.34194">
        <ele>429.29</ele>
        <time>2021-04-09T08:54:04.164Z</time>
      </trkpt>
      <trkpt lat="47.1527" lon="7.34224">
        <ele>429.54</ele>
        <time>2021-04-09T08:54:30.366Z</time>
      </trkpt>
      <trkpt lat="47.15277" lon="7.3426">
        <ele>429.66</ele>
        <time>2021-04-09T08:54:59.623Z</time>
      </trkpt>
      <trkpt lat="47.15281" lon="7.34286">
        <ele>429.54</ele>
        <time>2021-04-09T08:55:17.719Z</time>
      </trkpt>
      <trkpt lat="47.15285" lon="7.34305">
        <ele>429.66</ele>
        <time>2021-04-09T08:55:33.905Z</time>
      </trkpt>
      <trkpt lat="47.1529" lon="7.34326">
        <ele>429.9</ele>
        <time>2021-04-09T08:55:53.368Z</time>
      </trkpt>
      <trkpt lat="47.15294" lon="7.34369">
        <ele>430.39</ele>
        <time>2021-04-09T08:56:31.637Z</time>
      </trkpt>
      <trkpt lat="47.15296" lon="7.34371">
        <ele>430.51</ele>
        <time>2021-04-09T08:56:36.275Z</time>
      </trkpt>
      <trkpt lat="47.15301" lon="7.34375">
        <ele>430.5</ele>
        <time>2021-04-09T08:56:42.369Z</time>
      </trkpt>
      <trkpt lat="47.153" lon="7.34379">
        <ele>430.54</ele>
        <time>2021-04-09T08:56:46.016Z</time>
      </trkpt>
      <trkpt lat="47.153" lon="7.34384">
        <ele>430.54</ele>
        <time>2021-04-09T08:56:49.754Z</time>
      </trkpt>
      <trkpt lat="47.15303" lon="7.34405">
        <ele>430.57</ele>
        <time>2021-04-09T08:57:06.106Z</time>
      </trkpt>
      <trkpt lat="47.15304" lon="7.34417">
        <ele>430.55</ele>
        <time>2021-04-09T08:57:14.820Z</time>
      </trkpt>
      <trkpt lat="47.15305" lon="7.34471">
        <ele>430.46</ele>
        <time>2021-04-09T08:57:53.748Z</time>
      </trkpt>
      <trkpt lat="47.15305" lon="7.34544">
        <ele>430.59</ele>
        <time>2021-04-09T08:58:49.669Z</time>
      </trkpt>
      <trkpt lat="47.15305" lon="7.34555">
        <ele>430.53</ele>
        <time>2021-04-09T08:58:52.513Z</time>
      </trkpt>
      <trkpt lat="47.15307" lon="7.34563">
        <ele>430.6</ele>
        <time>2021-04-09T08:58:59.679Z</time>
      </trkpt>
      <trkpt lat="47.15313" lon="7.34595">
        <ele>430.67</ele>
        <time>2021-04-09T08:59:25.222Z</time>
      </trkpt>
      <trkpt lat="47.15315" lon="7.34606">
        <ele>430.65</ele>
        <time>2021-04-09T08:59:33.411Z</time>
      </trkpt>
      <trkpt lat="47.15316" lon="7.34619">
        <ele>430.53</ele>
        <time>2021-04-09T08:59:36.560Z</time>
      </trkpt>
      <trkpt lat="47.15317" lon="7.3464">
        <ele>430.39</ele>
        <time>2021-04-09T08:59:41.876Z</time>
      </trkpt>
      <trkpt lat="47.15318" lon="7.34655">
        <ele>430.52</ele>
        <time>2021-04-09T08:59:54.626Z</time>
      </trkpt>
      <trkpt lat="47.15319" lon="7.34664">
        <ele>430.48</ele>
        <time>2021-04-09T09:00:00.831Z</time>
      </trkpt>
      <trkpt lat="47.15322" lon="7.34681">
        <ele>430.39</ele>
        <time>2021-04-09T09:00:05.404Z</time>
      </trkpt>
      <trkpt lat="47.15326" lon="7.34701">
        <ele>430.4</ele>
        <time>2021-04-09T09:00:21.091Z</time>
      </trkpt>
      <trkpt lat="47.1533" lon="7.34716">
        <ele>430.43</ele>
        <time>2021-04-09T09:00:33.448Z</time>
      </trkpt>
      <trkpt lat="47.15331" lon="7.34727">
        <ele>430.41</ele>
        <time>2021-04-09T09:00:41.421Z</time>
      </trkpt>
      <trkpt lat="47.15331" lon="7.34744">
        <ele>430.57</ele>
        <time>2021-04-09T09:00:55.977Z</time>
      </trkpt>
      <trkpt lat="47.1533" lon="7.34759">
        <ele>430.63</ele>
        <time>2021-04-09T09:01:07.884Z</time>
      </trkpt>
      <trkpt lat="47.15327" lon="7.34779">
        <ele>430.69</ele>
        <time>2021-04-09T09:01:23.826Z</time>
      </trkpt>
      <trkpt lat="47.15321" lon="7.34813">
        <ele>430.68</ele>
        <time>2021-04-09T09:01:49.921Z</time>
      </trkpt>
      <trkpt lat="47.15317" lon="7.34832">
        <ele>430.54</ele>
        <time>2021-04-09T09:01:54.906Z</time>
      </trkpt>
      <trkpt lat="47.15313" lon="7.34851">
        <ele>430.44</ele>
        <time>2021-04-09T09:02:00.094Z</time>
      </trkpt>
      <trkpt lat="47.15299" lon="7.34957">
        <ele>430.57</ele>
        <time>2021-04-09T09:03:22.158Z</time>
      </trkpt>
      <trkpt lat="47.15295" lon="7.34977">
        <ele>430.62</ele>
        <time>2021-04-09T09:03:38.265Z</time>
      </trkpt>
      <trkpt lat="47.15288" lon="7.35015">
        <ele>430.7</ele>
        <time>2021-04-09T09:04:08.528Z</time>
      </trkpt>
      <trkpt lat="47.15278" lon="7.35063">
        <ele>430.67</ele>
        <time>2021-04-09T09:04:45.564Z</time>
      </trkpt>
      <trkpt lat="47.15269" lon="7.35105">
        <ele>430.44</ele>
        <time>2021-04-09T09:04:57.005Z</time>
      </trkpt>
      <trkpt lat="47.15267" lon="7.35114">
        <ele>430.35</ele>
        <time>2021-04-09T09:04:59.270Z</time>
      </trkpt>
      <trkpt lat="47.15266" lon="7.35118">
        <ele>430.42</ele>
        <time>2021-04-09T09:05:03.361Z</time>
      </trkpt>
      <trkpt lat="47.15264" lon="7.35118">
        <ele>430.32</ele>
        <time>2021-04-09T09:05:03.845Z</time>
      </trkpt>
      <trkpt lat="47.15262" lon="7.35121">
        <ele>430.21</ele>
        <time>2021-04-09T09:05:04.612Z</time>
      </trkpt>
      <trkpt lat="47.1526" lon="7.35125">
        <ele>430.04</ele>
        <time>2021-04-09T09:05:05.426Z</time>
      </trkpt>
      <trkpt lat="47.15259" lon="7.35129">
        <ele>430.09</ele>
        <time>2021-04-09T09:05:09.211Z</time>
      </trkpt>
      <trkpt lat="47.15257" lon="7.35141">
        <ele>430.2</ele>
        <time>2021-04-09T09:05:19.707Z</time>
      </trkpt>
      <trkpt lat="47.15255" lon="7.35163">
        <ele>430.26</ele>
        <time>2021-04-09T09:05:36.929Z</time>
      </trkpt>
      <trkpt lat="47.15251" lon="7.35212">
        <ele>430.35</ele>
        <time>2021-04-09T09:06:14.757Z</time>
      </trkpt>
      <trkpt lat="47.15247" lon="7.35243">
        <ele>430.39</ele>
        <time>2021-04-09T09:06:38.758Z</time>
      </trkpt>
      <trkpt lat="47.15244" lon="7.35271">
        <ele>430.35</ele>
        <time>2021-04-09T09:06:59.298Z</time>
      </trkpt>
      <trkpt lat="47.15244" lon="7.35284">
        <ele>430.35</ele>
        <time>2021-04-09T09:07:09.018Z</time>
      </trkpt>
      <trkpt lat="47.15244" lon="7.35309">
        <ele>430.28</ele>
        <time>2021-04-09T09:07:26.601Z</time>
      </trkpt>
      <trkpt lat="47.15244" lon="7.35345">
        <ele>430.38</ele>
        <time>2021-04-09T09:07:54.563Z</time>
      </trkpt>
      <trkpt lat="47.15244" lon="7.35377">
        <ele>430.28</ele>
        <time>2021-04-09T09:08:16.915Z</time>
      </trkpt>
      <trkpt lat="47.15242" lon="7.35432">
        <ele>430.41</ele>
        <time>2021-04-09T09:08:59.448Z</time>
      </trkpt>
      <trkpt lat="47.15243" lon="7.35446">
        <ele>430.29</ele>
        <time>2021-04-09T09:09:02.877Z</time>
      </trkpt>
      <trkpt lat="47.15242" lon="7.35487">
        <ele>430.26</ele>
        <time>2021-04-09T09:09:33.054Z</time>
      </trkpt>
      <trkpt lat="47.15242" lon="7.35507">
        <ele>429.98</ele>
        <time>2021-04-09T09:09:37.469Z</time>
      </trkpt>
      <trkpt lat="47.15244" lon="7.35517">
        <ele>429.71</ele>
        <time>2021-04-09T09:09:39.381Z</time>
      </trkpt>
      <trkpt lat="47.15249" lon="7.35537">
        <ele>429.43</ele>
        <time>2021-04-09T09:09:44.155Z</time>
      </trkpt>
      <trkpt lat="47.15254" lon="7.3555">
        <ele>429.43</ele>
        <time>2021-04-09T09:09:55.322Z</time>
      </trkpt>
      <trkpt lat="47.15258" lon="7.35558">
        <ele>429.44</ele>
        <time>2021-04-09T09:10:02.848Z</time>
      </trkpt>
      <trkpt lat="47.15262" lon="7.35566">
        <ele>429.38</ele>
        <time>2021-04-09T09:10:05.386Z</time>
      </trkpt>
      <trkpt lat="47.15266" lon="7.35576">
        <ele>429.26</ele>
        <time>2021-04-09T09:10:08.118Z</time>
      </trkpt>
      <trkpt lat="47.15269" lon="7.35585">
        <ele>428.95</ele>
        <time>2021-04-09T09:10:09.834Z</time>
      </trkpt>
      <trkpt lat="47.15273" lon="7.356">
        <ele>428.88</ele>
        <time>2021-04-09T09:10:20.806Z</time>
      </trkpt>
      <trkpt lat="47.15275" lon="7.35605">
        <ele>428.8</ele>
        <time>2021-04-09T09:10:22.091Z</time>
      </trkpt>
      <trkpt lat="47.15277" lon="7.35608">
        <ele>428.59</ele>
        <time>2021-04-09T09:10:22.750Z</time>
      </trkpt>
      <trkpt lat="47.15279" lon="7.35609">
        <ele>428.42</ele>
        <time>2021-04-09T09:10:23.237Z</time>
      </trkpt>
      <trkpt lat="47.15282" lon="7.3561">
        <ele>428.37</ele>
        <time>2021-04-09T09:10:24.289Z</time>
      </trkpt>
      <trkpt lat="47.15285" lon="7.35609">
        <ele>428.27</ele>
        <time>2021-04-09T09:10:25.166Z</time>
      </trkpt>
      <trkpt lat="47.15287" lon="7.35607">
        <ele>428.33</ele>
        <time>2021-04-09T09:10:28.607Z</time>
      </trkpt>
      <trkpt lat="47.15294" lon="7.35604">
        <ele>428.5</ele>
        <time>2021-04-09T09:10:38.800Z</time>
      </trkpt>
      <trkpt lat="47.15305" lon="7.356">
        <ele>429.26</ele>
        <time>2021-04-09T09:11:03.327Z</time>
      </trkpt>
      <trkpt lat="47.15314" lon="7.35596">
        <ele>429.2</ele>
        <time>2021-04-09T09:11:12.743Z</time>
      </trkpt>
      <trkpt lat="47.15322" lon="7.35595">
        <ele>428.97</ele>
        <time>2021-04-09T09:11:15.126Z</time>
      </trkpt>
      <trkpt lat="47.15327" lon="7.35593">
        <ele>428.89</ele>
        <time>2021-04-09T09:11:16.915Z</time>
      </trkpt>
      <trkpt lat="47.1533" lon="7.35589">
        <ele>428.98</ele>
        <time>2021-04-09T09:11:22.506Z</time>
      </trkpt>
      <trkpt lat="47.15335" lon="7.35582">
        <ele>429.21</ele>
        <time>2021-04-09T09:11:33.429Z</time>
      </trkpt>
      <trkpt lat="47.15341" lon="7.35568">
        <ele>429.01</ele>
        <time>2021-04-09T09:11:37.206Z</time>
      </trkpt>
      <trkpt lat="47.15348" lon="7.35549">
        <ele>429.06</ele>
        <time>2021-04-09T09:11:53.882Z</time>
      </trkpt>
      <trkpt lat="47.15352" lon="7.35537">
        <ele>429.15</ele>
        <time>2021-04-09T09:12:04.871Z</time>
      </trkpt>
      <trkpt lat="47.1536" lon="7.35518">
        <ele>429.11</ele>
        <time>2021-04-09T09:12:20.931Z</time>
      </trkpt>
      <trkpt lat="47.15373" lon="7.3549">
        <ele>429.03</ele>
        <time>2021-04-09T09:12:44.999Z</time>
      </trkpt>
      <trkpt lat="47.15376" lon="7.35481">
        <ele>429.03</ele>
        <time>2021-04-09T09:12:52.493Z</time>
      </trkpt>
      <trkpt lat="47.15389" lon="7.35446">
        <ele>428.97</ele>
        <time>2021-04-09T09:13:21.332Z</time>
      </trkpt>
      <trkpt lat="47.15397" lon="7.35431">
        <ele>428.93</ele>
        <time>2021-04-09T09:13:34.941Z</time>
      </trkpt>
      <trkpt lat="47.15408" lon="7.35414">
        <ele>428.8</ele>
        <time>2021-04-09T09:13:40.999Z</time>
      </trkpt>
      <trkpt lat="47.15411" lon="7.35409">
        <ele>428.91</ele>
        <time>2021-04-09T09:13:47.409Z</time>
      </trkpt>
      <trkpt lat="47.15413" lon="7.35403">
        <ele>429.05</ele>
        <time>2021-04-09T09:13:54.369Z</time>
      </trkpt>
      <trkpt lat="47.15416" lon="7.35384">
        <ele>430.04</ele>
        <time>2021-04-09T09:14:24.777Z</time>
      </trkpt>
      <trkpt lat="47.15418" lon="7.35377">
        <ele>430.27</ele>
        <time>2021-04-09T09:14:34.361Z</time>
      </trkpt>
      <trkpt lat="47.15421" lon="7.3537">
        <ele>430.14</ele>
        <time>2021-04-09T09:14:36.135Z</time>
      </trkpt>
      <trkpt lat="47.15424" lon="7.35366">
        <ele>430.07</ele>
        <time>2021-04-09T09:14:37.502Z</time>
      </trkpt>
      <trkpt lat="47.15428" lon="7.35361">
        <ele>430.13</ele>
        <time>2021-04-09T09:14:43.949Z</time>
      </trkpt>
      <trkpt lat="47.15432" lon="7.35358">
        <ele>430.21</ele>
        <time>2021-04-09T09:14:49.849Z</time>
      </trkpt>
      <trkpt lat="47.15436" lon="7.35353">
        <ele>430.06</ele>
        <time>2021-04-09T09:14:51.408Z</time>
      </trkpt>
      <trkpt lat="47.15444" lon="7.35344">
        <ele>430.15</ele>
        <time>2021-04-09T09:15:03.469Z</time>
      </trkpt>
      <trkpt lat="47.15454" lon="7.35334">
        <ele>430.16</ele>
        <time>2021-04-09T09:15:16.866Z</time>
      </trkpt>
      <trkpt lat="47.15464" lon="7.35323">
        <ele>430.03</ele>
        <time>2021-04-09T09:15:21.465Z</time>
      </trkpt>
      <trkpt lat="47.15475" lon="7.35303">
        <ele>430</ele>
        <time>2021-04-09T09:15:40.204Z</time>
      </trkpt>
      <trkpt lat="47.15496" lon="7.35278">
        <ele>429.87</ele>
        <time>2021-04-09T09:16:07.870Z</time>
      </trkpt>
      <trkpt lat="47.15507" lon="7.35268">
        <ele>430.07</ele>
        <time>2021-04-09T09:16:24.435Z</time>
      </trkpt>
      <trkpt lat="47.15516" lon="7.35255">
        <ele>430.13</ele>
        <time>2021-04-09T09:16:38.937Z</time>
      </trkpt>
      <trkpt lat="47.15525" lon="7.3524">
        <ele>430.2</ele>
        <time>2021-04-09T09:16:54.632Z</time>
      </trkpt>
      <trkpt lat="47.1554" lon="7.35215">
        <ele>429.94</ele>
        <time>2021-04-09T09:17:02.867Z</time>
      </trkpt>
      <trkpt lat="47.15555" lon="7.3519">
        <ele>429.8</ele>
        <time>2021-04-09T09:17:25.638Z</time>
      </trkpt>
      <trkpt lat="47.15559" lon="7.35183">
        <ele>429.48</ele>
        <time>2021-04-09T09:17:27.123Z</time>
      </trkpt>
      <trkpt lat="47.15564" lon="7.35177">
        <ele>429.29</ele>
        <time>2021-04-09T09:17:29.022Z</time>
      </trkpt>
      <trkpt lat="47.15573" lon="7.35169">
        <ele>429.39</ele>
        <time>2021-04-09T09:17:41.687Z</time>
      </trkpt>
      <trkpt lat="47.15585" lon="7.35157">
        <ele>429.64</ele>
        <time>2021-04-09T09:18:00.631Z</time>
      </trkpt>
      <trkpt lat="47.15597" lon="7.35148">
        <ele>429.36</ele>
        <time>2021-04-09T09:18:04.994Z</time>
      </trkpt>
      <trkpt lat="47.15602" lon="7.35143">
        <ele>429.46</ele>
        <time>2021-04-09T09:18:12.829Z</time>
      </trkpt>
      <trkpt lat="47.15609" lon="7.35135">
        <ele>429.47</ele>
        <time>2021-04-09T09:18:22.677Z</time>
      </trkpt>
      <trkpt lat="47.15609" lon="7.35135">
        <ele>429.47</ele>
        <time>2021-04-09T09:18:22.677Z</time>
      </trkpt>
      <trkpt lat="47.15613" lon="7.3513">
        <ele>429.48</ele>
        <time>2021-04-09T09:18:28.551Z</time>
      </trkpt>
      <trkpt lat="47.15626" lon="7.35114">
        <ele>429.31</ele>
        <time>2021-04-09T09:18:34.826Z</time>
      </trkpt>
      <trkpt lat="47.15631" lon="7.35106">
        <ele>429.36</ele>
        <time>2021-04-09T09:18:43.487Z</time>
      </trkpt>
      <trkpt lat="47.15636" lon="7.35101">
        <ele>429.44</ele>
        <time>2021-04-09T09:18:51.051Z</time>
      </trkpt>
      <trkpt lat="47.15659" lon="7.35083">
        <ele>428.77</ele>
        <time>2021-04-09T09:18:59.032Z</time>
      </trkpt>
      <trkpt lat="47.15668" lon="7.35074">
        <ele>428.8</ele>
        <time>2021-04-09T09:19:11.308Z</time>
      </trkpt>
      <trkpt lat="47.1568" lon="7.35061">
        <ele>429.04</ele>
        <time>2021-04-09T09:19:30.530Z</time>
      </trkpt>
      <trkpt lat="47.15686" lon="7.35056">
        <ele>428.84</ele>
        <time>2021-04-09T09:19:32.569Z</time>
      </trkpt>
      <trkpt lat="47.15697" lon="7.35048">
        <ele>428.79</ele>
        <time>2021-04-09T09:19:45.268Z</time>
      </trkpt>
      <trkpt lat="47.15705" lon="7.35041">
        <ele>428.62</ele>
        <time>2021-04-09T09:19:48.374Z</time>
      </trkpt>
      <trkpt lat="47.1571" lon="7.35035">
        <ele>428.78</ele>
        <time>2021-04-09T09:19:57.553Z</time>
      </trkpt>
      <trkpt lat="47.15715" lon="7.35028">
        <ele>428.93</ele>
        <time>2021-04-09T09:20:07.029Z</time>
      </trkpt>
      <trkpt lat="47.15721" lon="7.35021">
        <ele>429.09</ele>
        <time>2021-04-09T09:20:17.442Z</time>
      </trkpt>
      <trkpt lat="47.15729" lon="7.35014">
        <ele>429.13</ele>
        <time>2021-04-09T09:20:28.096Z</time>
      </trkpt>
      <trkpt lat="47.1574" lon="7.35008">
        <ele>429.16</ele>
        <time>2021-04-09T09:20:41.304Z</time>
      </trkpt>
      <trkpt lat="47.15747" lon="7.35005">
        <ele>429.37</ele>
        <time>2021-04-09T09:20:52.193Z</time>
      </trkpt>
      <trkpt lat="47.15754" lon="7.35004">
        <ele>429.39</ele>
        <time>2021-04-09T09:21:00.132Z</time>
      </trkpt>
      <trkpt lat="47.15765" lon="7.35004">
        <ele>429.27</ele>
        <time>2021-04-09T09:21:04.157Z</time>
      </trkpt>
      <trkpt lat="47.15776" lon="7.35005">
        <ele>429.52</ele>
        <time>2021-04-09T09:21:19.452Z</time>
      </trkpt>
      <trkpt lat="47.15785" lon="7.35008">
        <ele>429.45</ele>
        <time>2021-04-09T09:21:22.982Z</time>
      </trkpt>
      <trkpt lat="47.15793" lon="7.35009">
        <ele>429.75</ele>
        <time>2021-04-09T09:21:36.403Z</time>
      </trkpt>
      <trkpt lat="47.15802" lon="7.35009">
        <ele>429.48</ele>
        <time>2021-04-09T09:21:39.036Z</time>
      </trkpt>
      <trkpt lat="47.15814" lon="7.3501">
        <ele>429.88</ele>
        <time>2021-04-09T09:21:58.045Z</time>
      </trkpt>
      <trkpt lat="47.15822" lon="7.35012">
        <ele>429.79</ele>
        <time>2021-04-09T09:22:01.006Z</time>
      </trkpt>
      <trkpt lat="47.15828" lon="7.35016">
        <ele>429.79</ele>
        <time>2021-04-09T09:22:08.249Z</time>
      </trkpt>
      <trkpt lat="47.15833" lon="7.35024">
        <ele>430.04</ele>
        <time>2021-04-09T09:22:20.021Z</time>
      </trkpt>
      <trkpt lat="47.1584" lon="7.35037">
        <ele>429.81</ele>
        <time>2021-04-09T09:22:23.689Z</time>
      </trkpt>
      <trkpt lat="47.15861" lon="7.3508">
        <ele>429.51</ele>
        <time>2021-04-09T09:22:37.321Z</time>
      </trkpt>
      <trkpt lat="47.15872" lon="7.35109">
        <ele>429.76</ele>
        <time>2021-04-09T09:23:04.948Z</time>
      </trkpt>
      <trkpt lat="47.15878" lon="7.3514">
        <ele>429.64</ele>
        <time>2021-04-09T09:23:27.179Z</time>
      </trkpt>
      <trkpt lat="47.15883" lon="7.35152">
        <ele>429.81</ele>
        <time>2021-04-09T09:23:39.745Z</time>
      </trkpt>
      <trkpt lat="47.15894" lon="7.35187">
        <ele>429.13</ele>
        <time>2021-04-09T09:23:47.756Z</time>
      </trkpt>
      <trkpt lat="47.15899" lon="7.35209">
        <ele>429.04</ele>
        <time>2021-04-09T09:24:03.703Z</time>
      </trkpt>
      <trkpt lat="47.15904" lon="7.35222">
        <ele>429.2</ele>
        <time>2021-04-09T09:24:16.752Z</time>
      </trkpt>
      <trkpt lat="47.15909" lon="7.35238">
        <ele>428.95</ele>
        <time>2021-04-09T09:24:20.626Z</time>
      </trkpt>
      <trkpt lat="47.15911" lon="7.35248">
        <ele>429.7</ele>
        <time>2021-04-09T09:24:42.108Z</time>
      </trkpt>
      <trkpt lat="47.15916" lon="7.35265">
        <ele>429.52</ele>
        <time>2021-04-09T09:24:46.520Z</time>
      </trkpt>
      <trkpt lat="47.1592" lon="7.35277">
        <ele>429.67</ele>
        <time>2021-04-09T09:24:58.290Z</time>
      </trkpt>
      <trkpt lat="47.15925" lon="7.35292">
        <ele>429.91</ele>
        <time>2021-04-09T09:25:13.776Z</time>
      </trkpt>
      <trkpt lat="47.15933" lon="7.35313">
        <ele>429.51</ele>
        <time>2021-04-09T09:25:18.861Z</time>
      </trkpt>
      <trkpt lat="47.15935" lon="7.35318">
        <ele>429.8</ele>
        <time>2021-04-09T09:25:27.825Z</time>
      </trkpt>
      <trkpt lat="47.15937" lon="7.35323">
        <ele>429.81</ele>
        <time>2021-04-09T09:25:32.265Z</time>
      </trkpt>
      <trkpt lat="47.15945" lon="7.35362">
        <ele>430.17</ele>
        <time>2021-04-09T09:26:06.834Z</time>
      </trkpt>
      <trkpt lat="47.1595" lon="7.35381">
        <ele>430.02</ele>
        <time>2021-04-09T09:26:11.907Z</time>
      </trkpt>
      <trkpt lat="47.15953" lon="7.35403">
        <ele>430.26</ele>
        <time>2021-04-09T09:26:31.505Z</time>
      </trkpt>
      <trkpt lat="47.15956" lon="7.35418">
        <ele>430.45</ele>
        <time>2021-04-09T09:26:45.482Z</time>
      </trkpt>
      <trkpt lat="47.15957" lon="7.35419">
        <ele>430.37</ele>
        <time>2021-04-09T09:26:45.738Z</time>
      </trkpt>
      <trkpt lat="47.15959" lon="7.35419">
        <ele>430.45</ele>
        <time>2021-04-09T09:26:49.209Z</time>
      </trkpt>
      <trkpt lat="47.15961" lon="7.35447">
        <ele>430.4</ele>
        <time>2021-04-09T09:27:09.446Z</time>
      </trkpt>
      <trkpt lat="47.15966" lon="7.35491">
        <ele>430.14</ele>
        <time>2021-04-09T09:27:20.895Z</time>
      </trkpt>
      <trkpt lat="47.15972" lon="7.35529">
        <ele>430.19</ele>
        <time>2021-04-09T09:27:50.571Z</time>
      </trkpt>
      <trkpt lat="47.15976" lon="7.35556">
        <ele>430.28</ele>
        <time>2021-04-09T09:28:12.177Z</time>
      </trkpt>
      <trkpt lat="47.15979" lon="7.35584">
        <ele>430.28</ele>
        <time>2021-04-09T09:28:33.367Z</time>
      </trkpt>
      <trkpt lat="47.15983" lon="7.35625">
        <ele>430.09</ele>
        <time>2021-04-09T09:29:01.431Z</time>
      </trkpt>
      <trkpt lat="47.15987" lon="7.35665">
        <ele>430.02</ele>
        <time>2021-04-09T09:29:30.520Z</time>
      </trkpt>
      <trkpt lat="47.1599" lon="7.35708">
        <ele>429.98</ele>
        <time>2021-04-09T09:30:02.174Z</time>
      </trkpt>
      <trkpt lat="47.15996" lon="7.35806">
        <ele>430</ele>
        <time>2021-04-09T09:31:15.934Z</time>
      </trkpt>
      <trkpt lat="47.15997" lon="7.35855">
        <ele>430.35</ele>
        <time>2021-04-09T09:31:56.481Z</time>
      </trkpt>
      <trkpt lat="47.15998" lon="7.35891">
        <ele>430.23</ele>
        <time>2021-04-09T09:32:21.536Z</time>
      </trkpt>
      <trkpt lat="47.15997" lon="7.3592">
        <ele>430.1</ele>
        <time>2021-04-09T09:32:41.254Z</time>
      </trkpt>
      <trkpt lat="47.15991" lon="7.36017">
        <ele>430.09</ele>
        <time>2021-04-09T09:33:53.899Z</time>
      </trkpt>
      <trkpt lat="47.15983" lon="7.36124">
        <ele>430.43</ele>
        <time>2021-04-09T09:35:17.947Z</time>
      </trkpt>
      <trkpt lat="47.15979" lon="7.36157">
        <ele>430.39</ele>
        <time>2021-04-09T09:35:42.350Z</time>
      </trkpt>
      <trkpt lat="47.15975" lon="7.3618">
        <ele>430.47</ele>
        <time>2021-04-09T09:36:00.941Z</time>
      </trkpt>
      <trkpt lat="47.15971" lon="7.36204">
        <ele>430.54</ele>
        <time>2021-04-09T09:36:20.147Z</time>
      </trkpt>
      <trkpt lat="47.15967" lon="7.36226">
        <ele>430.52</ele>
        <time>2021-04-09T09:36:36.841Z</time>
      </trkpt>
      <trkpt lat="47.1596" lon="7.36249">
        <ele>430.5</ele>
        <time>2021-04-09T09:36:55.348Z</time>
      </trkpt>
      <trkpt lat="47.15952" lon="7.36278">
        <ele>430.31</ele>
        <time>2021-04-09T09:37:03.341Z</time>
      </trkpt>
      <trkpt lat="47.15944" lon="7.36308">
        <ele>430.08</ele>
        <time>2021-04-09T09:37:11.402Z</time>
      </trkpt>
      <trkpt lat="47.15936" lon="7.36333">
        <ele>429.98</ele>
        <time>2021-04-09T09:37:30.500Z</time>
      </trkpt>
      <trkpt lat="47.1592" lon="7.36378">
        <ele>430.29</ele>
        <time>2021-04-09T09:38:11.864Z</time>
      </trkpt>
      <trkpt lat="47.15915" lon="7.36397">
        <ele>430.14</ele>
        <time>2021-04-09T09:38:16.938Z</time>
      </trkpt>
      <trkpt lat="47.15902" lon="7.36455">
        <ele>430.02</ele>
        <time>2021-04-09T09:39:00.656Z</time>
      </trkpt>
      <trkpt lat="47.15895" lon="7.36485">
        <ele>430.06</ele>
        <time>2021-04-09T09:39:24.777Z</time>
      </trkpt>
      <trkpt lat="47.15885" lon="7.36523">
        <ele>429.92</ele>
        <time>2021-04-09T09:39:53.050Z</time>
      </trkpt>
      <trkpt lat="47.15873" lon="7.3657">
        <ele>429.96</ele>
        <time>2021-04-09T09:40:30.989Z</time>
      </trkpt>
      <trkpt lat="47.15864" lon="7.36605">
        <ele>429.59</ele>
        <time>2021-04-09T09:40:39.874Z</time>
      </trkpt>
      <trkpt lat="47.15845" lon="7.36672">
        <ele>429.59</ele>
        <time>2021-04-09T09:41:34.144Z</time>
      </trkpt>
      <trkpt lat="47.15834" lon="7.36709">
        <ele>429.73</ele>
        <time>2021-04-09T09:42:05.812Z</time>
      </trkpt>
      <trkpt lat="47.15826" lon="7.36732">
        <ele>429.73</ele>
        <time>2021-04-09T09:42:25.125Z</time>
      </trkpt>
      <trkpt lat="47.15805" lon="7.36785">
        <ele>429.71</ele>
        <time>2021-04-09T09:43:10.649Z</time>
      </trkpt>
      <trkpt lat="47.15798" lon="7.36801">
        <ele>429.81</ele>
        <time>2021-04-09T09:43:25.956Z</time>
      </trkpt>
      <trkpt lat="47.15791" lon="7.3682">
        <ele>429.92</ele>
        <time>2021-04-09T09:43:43.301Z</time>
      </trkpt>
      <trkpt lat="47.15775" lon="7.36863">
        <ele>429.91</ele>
        <time>2021-04-09T09:44:19.778Z</time>
      </trkpt>
      <trkpt lat="47.15752" lon="7.36921">
        <ele>429.78</ele>
        <time>2021-04-09T09:45:07.875Z</time>
      </trkpt>
      <trkpt lat="47.15737" lon="7.36964">
        <ele>429.82</ele>
        <time>2021-04-09T09:45:44.413Z</time>
      </trkpt>
      <trkpt lat="47.15725" lon="7.36995">
        <ele>429.82</ele>
        <time>2021-04-09T09:46:11.081Z</time>
      </trkpt>
      <trkpt lat="47.15716" lon="7.37018">
        <ele>429.79</ele>
        <time>2021-04-09T09:46:30.427Z</time>
      </trkpt>
      <trkpt lat="47.157" lon="7.37057">
        <ele>429.84</ele>
        <time>2021-04-09T09:47:04.990Z</time>
      </trkpt>
      <trkpt lat="47.15684" lon="7.37094">
        <ele>429.76</ele>
        <time>2021-04-09T09:47:36.477Z</time>
      </trkpt>
      <trkpt lat="47.15671" lon="7.37123">
        <ele>429.77</ele>
        <time>2021-04-09T09:48:02.546Z</time>
      </trkpt>
      <trkpt lat="47.1566" lon="7.37144">
        <ele>429.83</ele>
        <time>2021-04-09T09:48:22.987Z</time>
      </trkpt>
      <trkpt lat="47.15647" lon="7.37167">
        <ele>429.93</ele>
        <time>2021-04-09T09:48:46.401Z</time>
      </trkpt>
      <trkpt lat="47.15636" lon="7.37188">
        <ele>430.17</ele>
        <time>2021-04-09T09:49:08.972Z</time>
      </trkpt>
      <trkpt lat="47.15631" lon="7.37199">
        <ele>430.13</ele>
        <time>2021-04-09T09:49:18.233Z</time>
      </trkpt>
      <trkpt lat="47.1563" lon="7.37208">
        <ele>430.26</ele>
        <time>2021-04-09T09:49:26.671Z</time>
      </trkpt>
      <trkpt lat="47.15622" lon="7.37216">
        <ele>430.04</ele>
        <time>2021-04-09T09:49:29.735Z</time>
      </trkpt>
      <trkpt lat="47.15618" lon="7.37223">
        <ele>430</ele>
        <time>2021-04-09T09:49:35.957Z</time>
      </trkpt>
      <trkpt lat="47.1561" lon="7.37237">
        <ele>430.17</ele>
        <time>2021-04-09T09:49:51.586Z</time>
      </trkpt>
      <trkpt lat="47.15601" lon="7.37255">
        <ele>430.18</ele>
        <time>2021-04-09T09:50:08.390Z</time>
      </trkpt>
      <trkpt lat="47.15598" lon="7.37259">
        <ele>430.08</ele>
        <time>2021-04-09T09:50:09.645Z</time>
      </trkpt>
      <trkpt lat="47.15591" lon="7.37267">
        <ele>430</ele>
        <time>2021-04-09T09:50:12.971Z</time>
      </trkpt>
      <trkpt lat="47.15583" lon="7.37276">
        <ele>430.06</ele>
        <time>2021-04-09T09:50:24.684Z</time>
      </trkpt>
      <trkpt lat="47.15572" lon="7.37287">
        <ele>429.77</ele>
        <time>2021-04-09T09:50:28.942Z</time>
      </trkpt>
      <trkpt lat="47.1555" lon="7.37305">
        <ele>429.55</ele>
        <time>2021-04-09T09:50:38.423Z</time>
      </trkpt>
      <trkpt lat="47.15521" lon="7.37328">
        <ele>429.85</ele>
        <time>2021-04-09T09:51:17.944Z</time>
      </trkpt>
      <trkpt lat="47.1551" lon="7.37339">
        <ele>429.88</ele>
        <time>2021-04-09T09:51:32.878Z</time>
      </trkpt>
      <trkpt lat="47.1549" lon="7.3736">
        <ele>429.81</ele>
        <time>2021-04-09T09:51:58.767Z</time>
      </trkpt>
      <trkpt lat="47.15481" lon="7.37369">
        <ele>429.94</ele>
        <time>2021-04-09T09:52:12.203Z</time>
      </trkpt>
      <trkpt lat="47.15437" lon="7.37406">
        <ele>429.96</ele>
        <time>2021-04-09T09:53:08.131Z</time>
      </trkpt>
      <trkpt lat="47.15412" lon="7.37421">
        <ele>429.93</ele>
        <time>2021-04-09T09:53:37.320Z</time>
      </trkpt>
      <trkpt lat="47.15398" lon="7.37429">
        <ele>430.08</ele>
        <time>2021-04-09T09:53:55.496Z</time>
      </trkpt>
      <trkpt lat="47.1538" lon="7.37436">
        <ele>429.77</ele>
        <time>2021-04-09T09:54:01.831Z</time>
      </trkpt>
      <trkpt lat="47.1536" lon="7.37444">
        <ele>429.64</ele>
        <time>2021-04-09T09:54:22.620Z</time>
      </trkpt>
      <trkpt lat="47.15344" lon="7.37449">
        <ele>429.59</ele>
        <time>2021-04-09T09:54:39.800Z</time>
      </trkpt>
      <trkpt lat="47.15322" lon="7.37456">
        <ele>429.59</ele>
        <time>2021-04-09T09:55:04.547Z</time>
      </trkpt>
      <trkpt lat="47.15276" lon="7.37469">
        <ele>429.54</ele>
        <time>2021-04-09T09:55:55.218Z</time>
      </trkpt>
      <trkpt lat="47.1526" lon="7.37474">
        <ele>429.83</ele>
        <time>2021-04-09T09:56:16.688Z</time>
      </trkpt>
      <trkpt lat="47.15251" lon="7.37476">
        <ele>429.7</ele>
        <time>2021-04-09T09:56:19.877Z</time>
      </trkpt>
      <trkpt lat="47.15214" lon="7.37478">
        <ele>429.4</ele>
        <time>2021-04-09T09:56:33.942Z</time>
      </trkpt>
      <trkpt lat="47.15179" lon="7.37481">
        <ele>429.51</ele>
        <time>2021-04-09T09:57:13.628Z</time>
      </trkpt>
      <trkpt lat="47.15139" lon="7.37484">
        <ele>429.69</ele>
        <time>2021-04-09T09:57:59.553Z</time>
      </trkpt>
      <trkpt lat="47.15109" lon="7.37486">
        <ele>429.8</ele>
        <time>2021-04-09T09:58:33.716Z</time>
      </trkpt>
      <trkpt lat="47.15099" lon="7.37486">
        <ele>429.84</ele>
        <time>2021-04-09T09:58:45.129Z</time>
      </trkpt>
      <trkpt lat="47.15088" lon="7.37482">
        <ele>429.69</ele>
        <time>2021-04-09T09:58:49.152Z</time>
      </trkpt>
      <trkpt lat="47.15083" lon="7.37481">
        <ele>429.7</ele>
        <time>2021-04-09T09:58:54.802Z</time>
      </trkpt>
      <trkpt lat="47.15072" lon="7.37482">
        <ele>429.85</ele>
        <time>2021-04-09T09:59:08.645Z</time>
      </trkpt>
      <trkpt lat="47.15062" lon="7.37482">
        <ele>429.87</ele>
        <time>2021-04-09T09:59:19.844Z</time>
      </trkpt>
      <trkpt lat="47.15044" lon="7.3748">
        <ele>429.85</ele>
        <time>2021-04-09T09:59:39.359Z</time>
      </trkpt>
      <trkpt lat="47.15021" lon="7.37476">
        <ele>429.62</ele>
        <time>2021-04-09T09:59:47.943Z</time>
      </trkpt>
      <trkpt lat="47.15" lon="7.3747">
        <ele>429.64</ele>
        <time>2021-04-09T10:00:11.666Z</time>
      </trkpt>
      <trkpt lat="47.14953" lon="7.37459">
        <ele>429.94</ele>
        <time>2021-04-09T10:01:07.197Z</time>
      </trkpt>
      <trkpt lat="47.14933" lon="7.37453">
        <ele>429.88</ele>
        <time>2021-04-09T10:01:28.671Z</time>
      </trkpt>
      <trkpt lat="47.14918" lon="7.3745">
        <ele>430.11</ele>
        <time>2021-04-09T10:01:48.005Z</time>
      </trkpt>
      <trkpt lat="47.14902" lon="7.37447">
        <ele>430.32</ele>
        <time>2021-04-09T10:02:08.140Z</time>
      </trkpt>
      <trkpt lat="47.14886" lon="7.37439">
        <ele>430.32</ele>
        <time>2021-04-09T10:02:26.720Z</time>
      </trkpt>
      <trkpt lat="47.14873" lon="7.3743">
        <ele>430.07</ele>
        <time>2021-04-09T10:02:31.564Z</time>
      </trkpt>
      <trkpt lat="47.14862" lon="7.37422">
        <ele>429.85</ele>
        <time>2021-04-09T10:02:35.676Z</time>
      </trkpt>
      <trkpt lat="47.14851" lon="7.37414">
        <ele>429.79</ele>
        <time>2021-04-09T10:02:48.228Z</time>
      </trkpt>
      <trkpt lat="47.14842" lon="7.3741">
        <ele>429.94</ele>
        <time>2021-04-09T10:03:00.334Z</time>
      </trkpt>
      <trkpt lat="47.1482" lon="7.37392">
        <ele>429.89</ele>
        <time>2021-04-09T10:03:27.197Z</time>
      </trkpt>
      <trkpt lat="47.14799" lon="7.37375">
        <ele>429.89</ele>
        <time>2021-04-09T10:03:53.553Z</time>
      </trkpt>
      <trkpt lat="47.14796" lon="7.37373">
        <ele>429.89</ele>
        <time>2021-04-09T10:03:57.174Z</time>
      </trkpt>
      <trkpt lat="47.14789" lon="7.37369">
        <ele>430.02</ele>
        <time>2021-04-09T10:04:06.987Z</time>
      </trkpt>
      <trkpt lat="47.14789" lon="7.37368">
        <ele>430.02</ele>
        <time>2021-04-09T10:04:07.735Z</time>
      </trkpt>
      <trkpt lat="47.14777" lon="7.37361">
        <ele>430.15</ele>
        <time>2021-04-09T10:04:23.370Z</time>
      </trkpt>
      <trkpt lat="47.14775" lon="7.37359">
        <ele>430.19</ele>
        <time>2021-04-09T10:04:26.504Z</time>
      </trkpt>
      <trkpt lat="47.14764" lon="7.37349">
        <ele>430.17</ele>
        <time>2021-04-09T10:04:40.394Z</time>
      </trkpt>
      <trkpt lat="47.14756" lon="7.37341">
        <ele>430.25</ele>
        <time>2021-04-09T10:04:51.903Z</time>
      </trkpt>
      <trkpt lat="47.14745" lon="7.37331">
        <ele>430.35</ele>
        <time>2021-04-09T10:05:07.205Z</time>
      </trkpt>
      <trkpt lat="47.14734" lon="7.37321">
        <ele>430.32</ele>
        <time>2021-04-09T10:05:20.936Z</time>
      </trkpt>
      <trkpt lat="47.14728" lon="7.37316">
        <ele>430.3</ele>
        <time>2021-04-09T10:05:28.196Z</time>
      </trkpt>
      <trkpt lat="47.14715" lon="7.37306">
        <ele>430.45</ele>
        <time>2021-04-09T10:05:45.993Z</time>
      </trkpt>
      <trkpt lat="47.14712" lon="7.37304">
        <ele>430.5</ele>
        <time>2021-04-09T10:05:50.199Z</time>
      </trkpt>
      <trkpt lat="47.14704" lon="7.373">
        <ele>430.61</ele>
        <time>2021-04-09T10:06:00.747Z</time>
      </trkpt>
      <trkpt lat="47.1469" lon="7.37293">
        <ele>430.72</ele>
        <time>2021-04-09T10:06:18.194Z</time>
      </trkpt>
      <trkpt lat="47.14687" lon="7.37292">
        <ele>430.74</ele>
        <time>2021-04-09T10:06:21.790Z</time>
      </trkpt>
      <trkpt lat="47.14679" lon="7.37286">
        <ele>430.75</ele>
        <time>2021-04-09T10:06:31.765Z</time>
      </trkpt>
      <trkpt lat="47.14667" lon="7.3728">
        <ele>430.79</ele>
        <time>2021-04-09T10:06:46.115Z</time>
      </trkpt>
      <trkpt lat="47.1465" lon="7.37253">
        <ele>430.7</ele>
        <time>2021-04-09T10:07:12.191Z</time>
      </trkpt>
      <trkpt lat="47.14642" lon="7.37239">
        <ele>430.78</ele>
        <time>2021-04-09T10:07:26.720Z</time>
      </trkpt>
      <trkpt lat="47.14637" lon="7.37227">
        <ele>430.64</ele>
        <time>2021-04-09T10:07:30.059Z</time>
      </trkpt>
      <trkpt lat="47.14626" lon="7.37213">
        <ele>430.72</ele>
        <time>2021-04-09T10:07:46.903Z</time>
      </trkpt>
      <trkpt lat="47.14617" lon="7.37202">
        <ele>430.6</ele>
        <time>2021-04-09T10:07:51.222Z</time>
      </trkpt>
      <trkpt lat="47.14606" lon="7.37185">
        <ele>430.55</ele>
        <time>2021-04-09T10:08:07.964Z</time>
      </trkpt>
      <trkpt lat="47.14598" lon="7.37169">
        <ele>430.54</ele>
        <time>2021-04-09T10:08:22.647Z</time>
      </trkpt>
      <trkpt lat="47.1459" lon="7.37156">
        <ele>430.47</ele>
        <time>2021-04-09T10:08:34.674Z</time>
      </trkpt>
      <trkpt lat="47.14574" lon="7.37133">
        <ele>430.64</ele>
        <time>2021-04-09T10:09:01.116Z</time>
      </trkpt>
      <trkpt lat="47.14571" lon="7.37127">
        <ele>430.31</ele>
        <time>2021-04-09T10:09:02.198Z</time>
      </trkpt>
      <trkpt lat="47.1456" lon="7.37104">
        <ele>430.64</ele>
        <time>2021-04-09T10:09:27.170Z</time>
      </trkpt>
      <trkpt lat="47.1455" lon="7.37077">
        <ele>430.41</ele>
        <time>2021-04-09T10:09:34.812Z</time>
      </trkpt>
      <trkpt lat="47.14547" lon="7.3707">
        <ele>430.23</ele>
        <time>2021-04-09T10:09:36.424Z</time>
      </trkpt>
      <trkpt lat="47.14535" lon="7.37029">
        <ele>429.91</ele>
        <time>2021-04-09T10:09:47.585Z</time>
      </trkpt>
      <trkpt lat="47.14526" lon="7.37">
        <ele>429.79</ele>
        <time>2021-04-09T10:10:09.558Z</time>
      </trkpt>
      <trkpt lat="47.14523" lon="7.36991">
        <ele>429.8</ele>
        <time>2021-04-09T10:10:17.155Z</time>
      </trkpt>
      <trkpt lat="47.14519" lon="7.36982">
        <ele>429.98</ele>
        <time>2021-04-09T10:10:27.535Z</time>
      </trkpt>
      <trkpt lat="47.1451" lon="7.36964">
        <ele>429.91</ele>
        <time>2021-04-09T10:10:43.139Z</time>
      </trkpt>
      <trkpt lat="47.14495" lon="7.36931">
        <ele>430.04</ele>
        <time>2021-04-09T10:11:14.189Z</time>
      </trkpt>
      <trkpt lat="47.1449" lon="7.36919">
        <ele>430.07</ele>
        <time>2021-04-09T10:11:25.023Z</time>
      </trkpt>
      <trkpt lat="47.14483" lon="7.36905">
        <ele>430.13</ele>
        <time>2021-04-09T10:11:38.650Z</time>
      </trkpt>
      <trkpt lat="47.14476" lon="7.36889">
        <ele>429.97</ele>
        <time>2021-04-09T10:11:43.295Z</time>
      </trkpt>
      <trkpt lat="47.14472" lon="7.36879">
        <ele>430.2</ele>
        <time>2021-04-09T10:11:55.130Z</time>
      </trkpt>
      <trkpt lat="47.14471" lon="7.36873">
        <ele>430.1</ele>
        <time>2021-04-09T10:11:56.445Z</time>
      </trkpt>
      <trkpt lat="47.14471" lon="7.36867">
        <ele>430.17</ele>
        <time>2021-04-09T10:12:01.768Z</time>
      </trkpt>
      <trkpt lat="47.14469" lon="7.36853">
        <ele>430.07</ele>
        <time>2021-04-09T10:12:05.358Z</time>
      </trkpt>
      <trkpt lat="47.14466" lon="7.36838">
        <ele>430.17</ele>
        <time>2021-04-09T10:12:18.151Z</time>
      </trkpt>
      <trkpt lat="47.14462" lon="7.3682">
        <ele>430.18</ele>
        <time>2021-04-09T10:12:32.413Z</time>
      </trkpt>
      <trkpt lat="47.14457" lon="7.36795">
        <ele>430.03</ele>
        <time>2021-04-09T10:12:39.113Z</time>
      </trkpt>
      <trkpt lat="47.14453" lon="7.36784">
        <ele>429.97</ele>
        <time>2021-04-09T10:12:47.528Z</time>
      </trkpt>
      <trkpt lat="47.14452" lon="7.36782">
        <ele>429.97</ele>
        <time>2021-04-09T10:12:49.385Z</time>
      </trkpt>
      <trkpt lat="47.14449" lon="7.36781">
        <ele>429.93</ele>
        <time>2021-04-09T10:12:50.480Z</time>
      </trkpt>
      <trkpt lat="47.14423" lon="7.36792">
        <ele>429.86</ele>
        <time>2021-04-09T10:13:19.091Z</time>
      </trkpt>
      <trkpt lat="47.14421" lon="7.36791">
        <ele>429.91</ele>
        <time>2021-04-09T10:13:22.056Z</time>
      </trkpt>
      <trkpt lat="47.14418" lon="7.36791">
        <ele>429.92</ele>
        <time>2021-04-09T10:13:25.459Z</time>
      </trkpt>
      <trkpt lat="47.14408" lon="7.36795">
        <ele>429.73</ele>
        <time>2021-04-09T10:13:28.914Z</time>
      </trkpt>
      <trkpt lat="47.14386" lon="7.36805">
        <ele>429.66</ele>
        <time>2021-04-09T10:13:53.104Z</time>
      </trkpt>
      <trkpt lat="47.14359" lon="7.36816">
        <ele>429.94</ele>
        <time>2021-04-09T10:14:27.011Z</time>
      </trkpt>
      <trkpt lat="47.14347" lon="7.36822">
        <ele>429.88</ele>
        <time>2021-04-09T10:14:40.004Z</time>
      </trkpt>
      <trkpt lat="47.14335" lon="7.36831">
        <ele>429.76</ele>
        <time>2021-04-09T10:14:45.066Z</time>
      </trkpt>
      <trkpt lat="47.1433" lon="7.36817">
        <ele>429.65</ele>
        <time>2021-04-09T10:14:49.036Z</time>
      </trkpt>
      <trkpt lat="47.14325" lon="7.36806">
        <ele>429.61</ele>
        <time>2021-04-09T10:14:58.299Z</time>
      </trkpt>
      <trkpt lat="47.14318" lon="7.36793">
        <ele>429.64</ele>
        <time>2021-04-09T10:15:11.008Z</time>
      </trkpt>
      <trkpt lat="47.14313" lon="7.36782">
        <ele>429.55</ele>
        <time>2021-04-09T10:15:14.340Z</time>
      </trkpt>
      <trkpt lat="47.14301" lon="7.36753">
        <ele>429.35</ele>
        <time>2021-04-09T10:15:23.044Z</time>
      </trkpt>
      <trkpt lat="47.14288" lon="7.36719">
        <ele>429.04</ele>
        <time>2021-04-09T10:15:32.652Z</time>
      </trkpt>
      <trkpt lat="47.14279" lon="7.36695">
        <ele>428.61</ele>
        <time>2021-04-09T10:15:38.534Z</time>
      </trkpt>
      <trkpt lat="47.1427" lon="7.36705">
        <ele>428.42</ele>
        <time>2021-04-09T10:15:42.363Z</time>
      </trkpt>
      <trkpt lat="47.14262" lon="7.36716">
        <ele>428.41</ele>
        <time>2021-04-09T10:15:54.239Z</time>
      </trkpt>
      <trkpt lat="47.14252" lon="7.36733">
        <ele>428.79</ele>
        <time>2021-04-09T10:16:16.002Z</time>
      </trkpt>
      <trkpt lat="47.14226" lon="7.36782">
        <ele>428.35</ele>
        <time>2021-04-09T10:16:31.570Z</time>
      </trkpt>
      <trkpt lat="47.14207" lon="7.36819">
        <ele>428.57</ele>
        <time>2021-04-09T10:17:08.606Z</time>
      </trkpt>
      <trkpt lat="47.14192" lon="7.36852">
        <ele>428.66</ele>
        <time>2021-04-09T10:17:39.222Z</time>
      </trkpt>
      <trkpt lat="47.14177" lon="7.36888">
        <ele>428.35</ele>
        <time>2021-04-09T10:17:49.744Z</time>
      </trkpt>
      <trkpt lat="47.14158" lon="7.36934">
        <ele>428.33</ele>
        <time>2021-04-09T10:18:29.655Z</time>
      </trkpt>
      <trkpt lat="47.14153" lon="7.36949">
        <ele>428.34</ele>
        <time>2021-04-09T10:18:42.249Z</time>
      </trkpt>
      <trkpt lat="47.14148" lon="7.36969">
        <ele>428.22</ele>
        <time>2021-04-09T10:18:47.741Z</time>
      </trkpt>
      <trkpt lat="47.14142" lon="7.37002">
        <ele>428.28</ele>
        <time>2021-04-09T10:19:13.905Z</time>
      </trkpt>
      <trkpt lat="47.14137" lon="7.37029">
        <ele>428.23</ele>
        <time>2021-04-09T10:19:34.021Z</time>
      </trkpt>
      <trkpt lat="47.14132" lon="7.37061">
        <ele>428.34</ele>
        <time>2021-04-09T10:19:59.735Z</time>
      </trkpt>
      <trkpt lat="47.14127" lon="7.37092">
        <ele>428.45</ele>
        <time>2021-04-09T10:20:24.722Z</time>
      </trkpt>
      <trkpt lat="47.14124" lon="7.3712">
        <ele>428.55</ele>
        <time>2021-04-09T10:20:46.977Z</time>
      </trkpt>
      <trkpt lat="47.14121" lon="7.37145">
        <ele>428.34</ele>
        <time>2021-04-09T10:20:53.192Z</time>
      </trkpt>
      <trkpt lat="47.14118" lon="7.37173">
        <ele>428.2</ele>
        <time>2021-04-09T10:21:00.601Z</time>
      </trkpt>
      <trkpt lat="47.14117" lon="7.37198">
        <ele>428.21</ele>
        <time>2021-04-09T10:21:19.431Z</time>
      </trkpt>
      <trkpt lat="47.14117" lon="7.3721">
        <ele>428.35</ele>
        <time>2021-04-09T10:21:30.077Z</time>
      </trkpt>
      <trkpt lat="47.14118" lon="7.37217">
        <ele>428.74</ele>
        <time>2021-04-09T10:21:41.734Z</time>
      </trkpt>
      <trkpt lat="47.1412" lon="7.37221">
        <ele>429.02</ele>
        <time>2021-04-09T10:21:50.011Z</time>
      </trkpt>
      <trkpt lat="47.14126" lon="7.37222">
        <ele>429.5</ele>
        <time>2021-04-09T10:22:04.399Z</time>
      </trkpt>
      <trkpt lat="47.14137" lon="7.37226">
        <ele>430.11</ele>
        <time>2021-04-09T10:22:26.745Z</time>
      </trkpt>
      <trkpt lat="47.14135" lon="7.37235">
        <ele>430.17</ele>
        <time>2021-04-09T10:22:34.486Z</time>
      </trkpt>
      <trkpt lat="47.14134" lon="7.37248">
        <ele>430.29</ele>
        <time>2021-04-09T10:22:45.648Z</time>
      </trkpt>
      <trkpt lat="47.14136" lon="7.37275">
        <ele>431.09</ele>
        <time>2021-04-09T10:23:19.312Z</time>
      </trkpt>
      <trkpt lat="47.14135" lon="7.37284">
        <ele>431.56</ele>
        <time>2021-04-09T10:23:33.659Z</time>
      </trkpt>
      <trkpt lat="47.14124" lon="7.3728">
        <ele>431.31</ele>
        <time>2021-04-09T10:23:37.276Z</time>
      </trkpt>
      <trkpt lat="47.14028" lon="7.37248">
        <ele>432.86</ele>
        <time>2021-04-09T10:25:43.741Z</time>
      </trkpt>
      <trkpt lat="47.14017" lon="7.37245">
        <ele>433.2</ele>
        <time>2021-04-09T10:26:00.786Z</time>
      </trkpt>
      <trkpt lat="47.14001" lon="7.3724">
        <ele>434.2</ele>
        <time>2021-04-09T10:26:34.706Z</time>
      </trkpt>
      <trkpt lat="47.13983" lon="7.37234">
        <ele>435.38</ele>
        <time>2021-04-09T10:27:13.753Z</time>
      </trkpt>
      <trkpt lat="47.13992" lon="7.37161">
        <ele>434.75</ele>
        <time>2021-04-09T10:27:31.842Z</time>
      </trkpt>
      <trkpt lat="47.13992" lon="7.37161">
        <ele>434.75</ele>
        <time>2021-04-09T10:27:31.842Z</time>
      </trkpt>
      <trkpt lat="47.13993" lon="7.37147">
        <ele>434.13</ele>
        <time>2021-04-09T10:27:33.895Z</time>
      </trkpt>
      <trkpt lat="47.13994" lon="7.37134">
        <ele>434.06</ele>
        <time>2021-04-09T10:27:37.286Z</time>
      </trkpt>
      <trkpt lat="47.13993" lon="7.37123">
        <ele>433.95</ele>
        <time>2021-04-09T10:27:39.921Z</time>
      </trkpt>
      <trkpt lat="47.13991" lon="7.37111">
        <ele>433.92</ele>
        <time>2021-04-09T10:27:48.682Z</time>
      </trkpt>
      <trkpt lat="47.13987" lon="7.37097">
        <ele>433.88</ele>
        <time>2021-04-09T10:27:59.402Z</time>
      </trkpt>
      <trkpt lat="47.13981" lon="7.37062">
        <ele>434.05</ele>
        <time>2021-04-09T10:28:28.223Z</time>
      </trkpt>
      <trkpt lat="47.13981" lon="7.37062">
        <ele>434.05</ele>
        <time>2021-04-09T10:28:28.223Z</time>
      </trkpt>
      <trkpt lat="47.13982" lon="7.37061">
        <ele>434.05</ele>
        <time>2021-04-09T10:28:29.552Z</time>
      </trkpt>
      <trkpt lat="47.13989" lon="7.37063">
        <ele>433.76</ele>
        <time>2021-04-09T10:28:31.429Z</time>
      </trkpt>
      <trkpt lat="47.13993" lon="7.37063">
        <ele>433.41</ele>
        <time>2021-04-09T10:28:32.351Z</time>
      </trkpt>
      <trkpt lat="47.14024" lon="7.3705">
        <ele>430.69</ele>
        <time>2021-04-09T10:28:39.784Z</time>
      </trkpt>
      <trkpt lat="47.14033" lon="7.37045">
        <ele>430.04</ele>
        <time>2021-04-09T10:28:42.003Z</time>
      </trkpt>
      <trkpt lat="47.14042" lon="7.3704">
        <ele>429.46</ele>
        <time>2021-04-09T10:28:44.139Z</time>
      </trkpt>
      <trkpt lat="47.14046" lon="7.37035">
        <ele>429.23</ele>
        <time>2021-04-09T10:28:45.480Z</time>
      </trkpt>
      <trkpt lat="47.1405" lon="7.37034">
        <ele>428.89</ele>
        <time>2021-04-09T10:28:46.416Z</time>
      </trkpt>
      <trkpt lat="47.14052" lon="7.37015">
        <ele>428.84</ele>
        <time>2021-04-09T10:28:59.998Z</time>
      </trkpt>
      <trkpt lat="47.14058" lon="7.36983">
        <ele>428.61</ele>
        <time>2021-04-09T10:29:08.338Z</time>
      </trkpt>
      <trkpt lat="47.14062" lon="7.36966">
        <ele>428.37</ele>
        <time>2021-04-09T10:29:12.356Z</time>
      </trkpt>
      <trkpt lat="47.14068" lon="7.36948">
        <ele>428.05</ele>
        <time>2021-04-09T10:29:16.638Z</time>
      </trkpt>
      <trkpt lat="47.14073" lon="7.36927">
        <ele>428.06</ele>
        <time>2021-04-09T10:29:33.378Z</time>
      </trkpt>
      <trkpt lat="47.14076" lon="7.36908">
        <ele>428.08</ele>
        <time>2021-04-09T10:29:48.169Z</time>
      </trkpt>
      <trkpt lat="47.14078" lon="7.36898">
        <ele>428.09</ele>
        <time>2021-04-09T10:29:56.066Z</time>
      </trkpt>
      <trkpt lat="47.14082" lon="7.36882">
        <ele>428.28</ele>
        <time>2021-04-09T10:30:11.066Z</time>
      </trkpt>
      <trkpt lat="47.14086" lon="7.36867">
        <ele>428.5</ele>
        <time>2021-04-09T10:30:25.829Z</time>
      </trkpt>
      <trkpt lat="47.14088" lon="7.36858">
        <ele>428.36</ele>
        <time>2021-04-09T10:30:27.892Z</time>
      </trkpt>
      <trkpt lat="47.14089" lon="7.3685">
        <ele>428.57</ele>
        <time>2021-04-09T10:30:37.217Z</time>
      </trkpt>
      <trkpt lat="47.14089" lon="7.36837">
        <ele>429.2</ele>
        <time>2021-04-09T10:30:56.965Z</time>
      </trkpt>
      <trkpt lat="47.14088" lon="7.36833">
        <ele>429.27</ele>
        <time>2021-04-09T10:31:01.057Z</time>
      </trkpt>
      <trkpt lat="47.14087" lon="7.36829">
        <ele>429.36</ele>
        <time>2021-04-09T10:31:05.511Z</time>
      </trkpt>
      <trkpt lat="47.14085" lon="7.36819">
        <ele>429.74</ele>
        <time>2021-04-09T10:31:19.470Z</time>
      </trkpt>
      <trkpt lat="47.14084" lon="7.3681">
        <ele>429.84</ele>
        <time>2021-04-09T10:31:27.471Z</time>
      </trkpt>
      <trkpt lat="47.14074" lon="7.36773">
        <ele>429.35</ele>
        <time>2021-04-09T10:31:36.525Z</time>
      </trkpt>
      <trkpt lat="47.14063" lon="7.3673">
        <ele>429.23</ele>
        <time>2021-04-09T10:32:08.972Z</time>
      </trkpt>
      <trkpt lat="47.14061" lon="7.36724">
        <ele>429.4</ele>
        <time>2021-04-09T10:32:16.573Z</time>
      </trkpt>
      <trkpt lat="47.14061" lon="7.36723">
        <ele>429.4</ele>
        <time>2021-04-09T10:32:17.321Z</time>
      </trkpt>
      <trkpt lat="47.14046" lon="7.36663">
        <ele>429.56</ele>
        <time>2021-04-09T10:33:06.793Z</time>
      </trkpt>
      <trkpt lat="47.14039" lon="7.36636">
        <ele>429.81</ele>
        <time>2021-04-09T10:33:31.252Z</time>
      </trkpt>
      <trkpt lat="47.14041" lon="7.36624">
        <ele>429.69</ele>
        <time>2021-04-09T10:33:34.196Z</time>
      </trkpt>
      <trkpt lat="47.14042" lon="7.36615">
        <ele>429.62</ele>
        <time>2021-04-09T10:33:36.455Z</time>
      </trkpt>
      <trkpt lat="47.14041" lon="7.36604">
        <ele>429.52</ele>
        <time>2021-04-09T10:33:39.134Z</time>
      </trkpt>
      <trkpt lat="47.1404" lon="7.36593">
        <ele>429.43</ele>
        <time>2021-04-09T10:33:41.860Z</time>
      </trkpt>
      <trkpt lat="47.14039" lon="7.36585">
        <ele>429.39</ele>
        <time>2021-04-09T10:33:47.336Z</time>
      </trkpt>
      <trkpt lat="47.14038" lon="7.36577">
        <ele>429.35</ele>
        <time>2021-04-09T10:33:52.812Z</time>
      </trkpt>
      <trkpt lat="47.14032" lon="7.36551">
        <ele>429.31</ele>
        <time>2021-04-09T10:34:12.692Z</time>
      </trkpt>
      <trkpt lat="47.14029" lon="7.36535">
        <ele>429.29</ele>
        <time>2021-04-09T10:34:24.776Z</time>
      </trkpt>
      <trkpt lat="47.14029" lon="7.36524">
        <ele>429.25</ele>
        <time>2021-04-09T10:34:32.380Z</time>
      </trkpt>
      <trkpt lat="47.14029" lon="7.36513">
        <ele>429.36</ele>
        <time>2021-04-09T10:34:41.886Z</time>
      </trkpt>
      <trkpt lat="47.1402" lon="7.36502">
        <ele>429.48</ele>
        <time>2021-04-09T10:34:56.088Z</time>
      </trkpt>
      <trkpt lat="47.1401" lon="7.36489">
        <ele>429.61</ele>
        <time>2021-04-09T10:35:12.201Z</time>
      </trkpt>
      <trkpt lat="47.13988" lon="7.36459">
        <ele>429.64</ele>
        <time>2021-04-09T10:35:45.497Z</time>
      </trkpt>
      <trkpt lat="47.13966" lon="7.36431">
        <ele>429.87</ele>
        <time>2021-04-09T10:36:19.986Z</time>
      </trkpt>
      <trkpt lat="47.13956" lon="7.36415">
        <ele>429.85</ele>
        <time>2021-04-09T10:36:35.906Z</time>
      </trkpt>
      <trkpt lat="47.13952" lon="7.36409">
        <ele>429.94</ele>
        <time>2021-04-09T10:36:43.248Z</time>
      </trkpt>
      <trkpt lat="47.13949" lon="7.36404">
        <ele>430.02</ele>
        <time>2021-04-09T10:36:49.195Z</time>
      </trkpt>
      <trkpt lat="47.13943" lon="7.36388">
        <ele>429.94</ele>
        <time>2021-04-09T10:37:01.632Z</time>
      </trkpt>
      <trkpt lat="47.13939" lon="7.36372">
        <ele>430.01</ele>
        <time>2021-04-09T10:37:15.126Z</time>
      </trkpt>
      <trkpt lat="47.13937" lon="7.36365">
        <ele>430.04</ele>
        <time>2021-04-09T10:37:21.124Z</time>
      </trkpt>
      <trkpt lat="47.13932" lon="7.36343">
        <ele>430.1</ele>
        <time>2021-04-09T10:37:39.097Z</time>
      </trkpt>
      <trkpt lat="47.13926" lon="7.36324">
        <ele>430.2</ele>
        <time>2021-04-09T10:37:55.839Z</time>
      </trkpt>
      <trkpt lat="47.13919" lon="7.36297">
        <ele>430.13</ele>
        <time>2021-04-09T10:38:16.330Z</time>
      </trkpt>
      <trkpt lat="47.1391" lon="7.36266">
        <ele>430.15</ele>
        <time>2021-04-09T10:38:41.740Z</time>
      </trkpt>
      <trkpt lat="47.13904" lon="7.36244">
        <ele>430.23</ele>
        <time>2021-04-09T10:39:00.310Z</time>
      </trkpt>
      <trkpt lat="47.139" lon="7.36226">
        <ele>430.33</ele>
        <time>2021-04-09T10:39:15.555Z</time>
      </trkpt>
      <trkpt lat="47.13894" lon="7.36192">
        <ele>430.36</ele>
        <time>2021-04-09T10:39:42.130Z</time>
      </trkpt>
      <trkpt lat="47.1389" lon="7.36159">
        <ele>430.25</ele>
        <time>2021-04-09T10:40:05.473Z</time>
      </trkpt>
      <trkpt lat="47.13881" lon="7.36107">
        <ele>430.08</ele>
        <time>2021-04-09T10:40:42.928Z</time>
      </trkpt>
      <trkpt lat="47.13871" lon="7.36051">
        <ele>430.09</ele>
        <time>2021-04-09T10:41:26.328Z</time>
      </trkpt>
      <trkpt lat="47.13871" lon="7.3605">
        <ele>430.09</ele>
        <time>2021-04-09T10:41:27.076Z</time>
      </trkpt>
      <trkpt lat="47.1386" lon="7.35985">
        <ele>430.1</ele>
        <time>2021-04-09T10:42:17.270Z</time>
      </trkpt>
      <trkpt lat="47.13842" lon="7.35875">
        <ele>430.09</ele>
        <time>2021-04-09T10:43:41.714Z</time>
      </trkpt>
      <trkpt lat="47.13832" lon="7.35814">
        <ele>430.21</ele>
        <time>2021-04-09T10:44:29.881Z</time>
      </trkpt>
      <trkpt lat="47.13822" lon="7.35755">
        <ele>430.55</ele>
        <time>2021-04-09T10:45:19.057Z</time>
      </trkpt>
      <trkpt lat="47.13803" lon="7.35644">
        <ele>430.4</ele>
        <time>2021-04-09T10:46:42.205Z</time>
      </trkpt>
      <trkpt lat="47.13795" lon="7.35595">
        <ele>430</ele>
        <time>2021-04-09T10:46:54.622Z</time>
      </trkpt>
      <trkpt lat="47.1379" lon="7.35567">
        <ele>429.65</ele>
        <time>2021-04-09T10:47:01.231Z</time>
      </trkpt>
      <trkpt lat="47.13783" lon="7.35525">
        <ele>429.3</ele>
        <time>2021-04-09T10:47:11.855Z</time>
      </trkpt>
      <trkpt lat="47.1375" lon="7.35324">
        <ele>429.99</ele>
        <time>2021-04-09T10:49:53.771Z</time>
      </trkpt>
      <trkpt lat="47.13746" lon="7.35305">
        <ele>430.23</ele>
        <time>2021-04-09T10:50:11.532Z</time>
      </trkpt>
      <trkpt lat="47.13745" lon="7.3529">
        <ele>430.18</ele>
        <time>2021-04-09T10:50:22.020Z</time>
      </trkpt>
      <trkpt lat="47.13739" lon="7.35237">
        <ele>430.35</ele>
        <time>2021-04-09T10:51:03.991Z</time>
      </trkpt>
      <trkpt lat="47.13719" lon="7.35066">
        <ele>429.26</ele>
        <time>2021-04-09T10:51:48.145Z</time>
      </trkpt>
      <trkpt lat="47.13708" lon="7.34977">
        <ele>429.46</ele>
        <time>2021-04-09T10:52:57.872Z</time>
      </trkpt>
      <trkpt lat="47.13706" lon="7.34962">
        <ele>429.37</ele>
        <time>2021-04-09T10:53:01.793Z</time>
      </trkpt>
      <trkpt lat="47.13704" lon="7.34955">
        <ele>429.36</ele>
        <time>2021-04-09T10:53:07.307Z</time>
      </trkpt>
      <trkpt lat="47.137" lon="7.34948">
        <ele>429.47</ele>
        <time>2021-04-09T10:53:15.466Z</time>
      </trkpt>
      <trkpt lat="47.13696" lon="7.34944">
        <ele>429.67</ele>
        <time>2021-04-09T10:53:24.027Z</time>
      </trkpt>
      <trkpt lat="47.13692" lon="7.34941">
        <ele>429.78</ele>
        <time>2021-04-09T10:53:30.392Z</time>
      </trkpt>
      <trkpt lat="47.13687" lon="7.3494">
        <ele>429.9</ele>
        <time>2021-04-09T10:53:37.485Z</time>
      </trkpt>
      <trkpt lat="47.13683" lon="7.3494">
        <ele>429.87</ele>
        <time>2021-04-09T10:53:39.017Z</time>
      </trkpt>
      <trkpt lat="47.1368" lon="7.34941">
        <ele>429.9</ele>
        <time>2021-04-09T10:53:42.731Z</time>
      </trkpt>
      <trkpt lat="47.13673" lon="7.34945">
        <ele>429.94</ele>
        <time>2021-04-09T10:53:51.411Z</time>
      </trkpt>
      <trkpt lat="47.13666" lon="7.34948">
        <ele>429.78</ele>
        <time>2021-04-09T10:53:53.741Z</time>
      </trkpt>
      <trkpt lat="47.1366" lon="7.3495">
        <ele>429.75</ele>
        <time>2021-04-09T10:54:00.035Z</time>
      </trkpt>
      <trkpt lat="47.13655" lon="7.3495">
        <ele>429.8</ele>
        <time>2021-04-09T10:54:06.087Z</time>
      </trkpt>
      <trkpt lat="47.13649" lon="7.3495">
        <ele>429.87</ele>
        <time>2021-04-09T10:54:13.473Z</time>
      </trkpt>
      <trkpt lat="47.13638" lon="7.34949">
        <ele>430</ele>
        <time>2021-04-09T10:54:27.057Z</time>
      </trkpt>
      <trkpt lat="47.13636" lon="7.34949">
        <ele>429.98</ele>
        <time>2021-04-09T10:54:27.798Z</time>
      </trkpt>
      <trkpt lat="47.13636" lon="7.34942">
        <ele>429.64</ele>
        <time>2021-04-09T10:54:28.896Z</time>
      </trkpt>
      <trkpt lat="47.13635" lon="7.34921">
        <ele>429.35</ele>
        <time>2021-04-09T10:54:33.563Z</time>
      </trkpt>
      <trkpt lat="47.13635" lon="7.34901">
        <ele>429.07</ele>
        <time>2021-04-09T10:54:37.980Z</time>
      </trkpt>
      <trkpt lat="47.13634" lon="7.34883">
        <ele>428.85</ele>
        <time>2021-04-09T10:54:42.097Z</time>
      </trkpt>
      <trkpt lat="47.13633" lon="7.34871">
        <ele>428.81</ele>
        <time>2021-04-09T10:54:50.511Z</time>
      </trkpt>
      <trkpt lat="47.13633" lon="7.34862">
        <ele>428.69</ele>
        <time>2021-04-09T10:54:52.522Z</time>
      </trkpt>
      <trkpt lat="47.13633" lon="7.34853">
        <ele>428.41</ele>
        <time>2021-04-09T10:54:54.059Z</time>
      </trkpt>
      <trkpt lat="47.13634" lon="7.34835">
        <ele>428.2</ele>
        <time>2021-04-09T10:54:58.216Z</time>
      </trkpt>
      <trkpt lat="47.13635" lon="7.34823">
        <ele>428.41</ele>
        <time>2021-04-09T10:55:10.019Z</time>
      </trkpt>
      <trkpt lat="47.13635" lon="7.34818">
        <ele>428.32</ele>
        <time>2021-04-09T10:55:11.052Z</time>
      </trkpt>
      <trkpt lat="47.13634" lon="7.34813">
        <ele>428.24</ele>
        <time>2021-04-09T10:55:12.177Z</time>
      </trkpt>
      <trkpt lat="47.13633" lon="7.34805">
        <ele>428.28</ele>
        <time>2021-04-09T10:55:18.692Z</time>
      </trkpt>
      <trkpt lat="47.13632" lon="7.34802">
        <ele>428.29</ele>
        <time>2021-04-09T10:55:21.295Z</time>
      </trkpt>
      <trkpt lat="47.13631" lon="7.34799">
        <ele>428.29</ele>
        <time>2021-04-09T10:55:23.794Z</time>
      </trkpt>
      <trkpt lat="47.13629" lon="7.34792">
        <ele>428.36</ele>
        <time>2021-04-09T10:55:30.277Z</time>
      </trkpt>
      <trkpt lat="47.13627" lon="7.34788">
        <ele>428.4</ele>
        <time>2021-04-09T10:55:34.442Z</time>
      </trkpt>
      <trkpt lat="47.13616" lon="7.34766">
        <ele>428.41</ele>
        <time>2021-04-09T10:55:54.963Z</time>
      </trkpt>
      <trkpt lat="47.13606" lon="7.34746">
        <ele>428.45</ele>
        <time>2021-04-09T10:56:13.939Z</time>
      </trkpt>
      <trkpt lat="47.13596" lon="7.34727">
        <ele>428.55</ele>
        <time>2021-04-09T10:56:32.973Z</time>
      </trkpt>
      <trkpt lat="47.13588" lon="7.34713">
        <ele>428.48</ele>
        <time>2021-04-09T10:56:45.562Z</time>
      </trkpt>
      <trkpt lat="47.13579" lon="7.34698">
        <ele>428.65</ele>
        <time>2021-04-09T10:57:02.454Z</time>
      </trkpt>
      <trkpt lat="47.13569" lon="7.34685">
        <ele>428.79</ele>
        <time>2021-04-09T10:57:18.690Z</time>
      </trkpt>
      <trkpt lat="47.13558" lon="7.34671">
        <ele>428.79</ele>
        <time>2021-04-09T10:57:34.687Z</time>
      </trkpt>
      <trkpt lat="47.13546" lon="7.34655">
        <ele>428.85</ele>
        <time>2021-04-09T10:57:53.124Z</time>
      </trkpt>
      <trkpt lat="47.13537" lon="7.34641">
        <ele>428.87</ele>
        <time>2021-04-09T10:58:07.735Z</time>
      </trkpt>
      <trkpt lat="47.13533" lon="7.34635">
        <ele>428.91</ele>
        <time>2021-04-09T10:58:14.449Z</time>
      </trkpt>
      <trkpt lat="47.1353" lon="7.34634">
        <ele>428.94</ele>
        <time>2021-04-09T10:58:18.162Z</time>
      </trkpt>
      <trkpt lat="47.13525" lon="7.34633">
        <ele>428.81</ele>
        <time>2021-04-09T10:58:19.707Z</time>
      </trkpt>
      <trkpt lat="47.13517" lon="7.34634">
        <ele>428.52</ele>
        <time>2021-04-09T10:58:21.914Z</time>
      </trkpt>
      <trkpt lat="47.13505" lon="7.34638">
        <ele>428.75</ele>
        <time>2021-04-09T10:58:38.237Z</time>
      </trkpt>
      <trkpt lat="47.135" lon="7.34638">
        <ele>428.81</ele>
        <time>2021-04-09T10:58:44.413Z</time>
      </trkpt>
      <trkpt lat="47.13497" lon="7.34638">
        <ele>428.79</ele>
        <time>2021-04-09T10:58:47.406Z</time>
      </trkpt>
      <trkpt lat="47.13486" lon="7.34636">
        <ele>428.81</ele>
        <time>2021-04-09T10:58:59.797Z</time>
      </trkpt>
      <trkpt lat="47.13472" lon="7.34633">
        <ele>428.77</ele>
        <time>2021-04-09T10:59:14.706Z</time>
      </trkpt>
      <trkpt lat="47.13464" lon="7.34631">
        <ele>429.1</ele>
        <time>2021-04-09T10:59:28.923Z</time>
      </trkpt>
      <trkpt lat="47.13451" lon="7.34627">
        <ele>430.13</ele>
        <time>2021-04-09T11:00:00.081Z</time>
      </trkpt>
      <trkpt lat="47.1344" lon="7.34627">
        <ele>430.18</ele>
        <time>2021-04-09T11:00:12.700Z</time>
      </trkpt>
      <trkpt lat="47.13428" lon="7.34625">
        <ele>430.02</ele>
        <time>2021-04-09T11:00:16.987Z</time>
      </trkpt>
      <trkpt lat="47.1342" lon="7.34623">
        <ele>430.11</ele>
        <time>2021-04-09T11:00:26.918Z</time>
      </trkpt>
      <trkpt lat="47.13409" lon="7.3462">
        <ele>430.19</ele>
        <time>2021-04-09T11:00:40.080Z</time>
      </trkpt>
      <trkpt lat="47.13395" lon="7.34615">
        <ele>430.32</ele>
        <time>2021-04-09T11:00:57.347Z</time>
      </trkpt>
      <trkpt lat="47.13384" lon="7.3461">
        <ele>429.64</ele>
        <time>2021-04-09T11:00:59.928Z</time>
      </trkpt>
      <trkpt lat="47.13372" lon="7.34604">
        <ele>430.32</ele>
        <time>2021-04-09T11:01:24.892Z</time>
      </trkpt>
      <trkpt lat="47.13368" lon="7.34604">
        <ele>430.31</ele>
        <time>2021-04-09T11:01:29.127Z</time>
      </trkpt>
      <trkpt lat="47.13364" lon="7.34604">
        <ele>430.23</ele>
        <time>2021-04-09T11:01:30.435Z</time>
      </trkpt>
      <trkpt lat="47.13358" lon="7.34606">
        <ele>430.33</ele>
        <time>2021-04-09T11:01:38.382Z</time>
      </trkpt>
      <trkpt lat="47.13341" lon="7.34612">
        <ele>430.39</ele>
        <time>2021-04-09T11:01:58.228Z</time>
      </trkpt>
      <trkpt lat="47.13329" lon="7.34617">
        <ele>430.12</ele>
        <time>2021-04-09T11:02:02.227Z</time>
      </trkpt>
      <trkpt lat="47.1332" lon="7.34622">
        <ele>430.41</ele>
        <time>2021-04-09T11:02:16.840Z</time>
      </trkpt>
      <trkpt lat="47.1331" lon="7.34627">
        <ele>430.25</ele>
        <time>2021-04-09T11:02:20.500Z</time>
      </trkpt>
      <trkpt lat="47.133" lon="7.34631">
        <ele>430.15</ele>
        <time>2021-04-09T11:02:24.356Z</time>
      </trkpt>
      <trkpt lat="47.13296" lon="7.34632">
        <ele>430.14</ele>
        <time>2021-04-09T11:02:28.655Z</time>
      </trkpt>
      <trkpt lat="47.13274" lon="7.34634">
        <ele>430.14</ele>
        <time>2021-04-09T11:02:52.888Z</time>
      </trkpt>
      <trkpt lat="47.1325" lon="7.34634">
        <ele>430.17</ele>
        <time>2021-04-09T11:03:19.580Z</time>
      </trkpt>
      <trkpt lat="47.13243" lon="7.34633">
        <ele>430.33</ele>
        <time>2021-04-09T11:03:29.348Z</time>
      </trkpt>
      <trkpt lat="47.13235" lon="7.3463">
        <ele>430.26</ele>
        <time>2021-04-09T11:03:32.468Z</time>
      </trkpt>
      <trkpt lat="47.13213" lon="7.3462">
        <ele>430.27</ele>
        <time>2021-04-09T11:03:57.887Z</time>
      </trkpt>
      <trkpt lat="47.13198" lon="7.34614">
        <ele>430.18</ele>
        <time>2021-04-09T11:04:13.586Z</time>
      </trkpt>
      <trkpt lat="47.1319" lon="7.3461">
        <ele>430.05</ele>
        <time>2021-04-09T11:04:16.506Z</time>
      </trkpt>
      <trkpt lat="47.13182" lon="7.34605">
        <ele>429.63</ele>
        <time>2021-04-09T11:04:18.639Z</time>
      </trkpt>
      <trkpt lat="47.13175" lon="7.34601">
        <ele>429.22</ele>
        <time>2021-04-09T11:04:20.386Z</time>
      </trkpt>
      <trkpt lat="47.1317" lon="7.346">
        <ele>429.28</ele>
        <time>2021-04-09T11:04:26.611Z</time>
      </trkpt>
      <trkpt lat="47.13167" lon="7.34602">
        <ele>429.23</ele>
        <time>2021-04-09T11:04:27.753Z</time>
      </trkpt>
      <trkpt lat="47.13163" lon="7.34603">
        <ele>429.31</ele>
        <time>2021-04-09T11:04:33.197Z</time>
      </trkpt>
      <trkpt lat="47.13159" lon="7.34604">
        <ele>429.34</ele>
        <time>2021-04-09T11:04:37.982Z</time>
      </trkpt>
      <trkpt lat="47.13147" lon="7.34605">
        <ele>429.59</ele>
        <time>2021-04-09T11:04:54.306Z</time>
      </trkpt>
      <trkpt lat="47.13133" lon="7.34605">
        <ele>429.67</ele>
        <time>2021-04-09T11:05:10.549Z</time>
      </trkpt>
      <trkpt lat="47.13108" lon="7.34608">
        <ele>429.35</ele>
        <time>2021-04-09T11:05:19.508Z</time>
      </trkpt>
      <trkpt lat="47.131" lon="7.34608">
        <ele>429.33</ele>
        <time>2021-04-09T11:05:27.979Z</time>
      </trkpt>
      <trkpt lat="47.13086" lon="7.34607">
        <ele>429.15</ele>
        <time>2021-04-09T11:05:32.981Z</time>
      </trkpt>
      <trkpt lat="47.13085" lon="7.34607">
        <ele>429.2</ele>
        <time>2021-04-09T11:05:34.903Z</time>
      </trkpt>
      <trkpt lat="47.13084" lon="7.34607">
        <ele>429.2</ele>
        <time>2021-04-09T11:05:36.003Z</time>
      </trkpt>
      <trkpt lat="47.13073" lon="7.34606">
        <ele>429.25</ele>
        <time>2021-04-09T11:05:48.645Z</time>
      </trkpt>
      <trkpt lat="47.13051" lon="7.346">
        <ele>429.21</ele>
        <time>2021-04-09T11:06:12.589Z</time>
      </trkpt>
      <trkpt lat="47.13032" lon="7.34595">
        <ele>429.44</ele>
        <time>2021-04-09T11:06:36.411Z</time>
      </trkpt>
      <trkpt lat="47.13008" lon="7.34587">
        <ele>429.59</ele>
        <time>2021-04-09T11:07:05.067Z</time>
      </trkpt>
      <trkpt lat="47.12978" lon="7.34578">
        <ele>429.77</ele>
        <time>2021-04-09T11:07:40.646Z</time>
      </trkpt>
      <trkpt lat="47.12967" lon="7.34574">
        <ele>429.86</ele>
        <time>2021-04-09T11:07:54.082Z</time>
      </trkpt>
      <trkpt lat="47.12946" lon="7.34564">
        <ele>430.09</ele>
        <time>2021-04-09T11:08:20.912Z</time>
      </trkpt>
      <trkpt lat="47.12918" lon="7.34549">
        <ele>430.22</ele>
        <time>2021-04-09T11:08:55.041Z</time>
      </trkpt>
      <trkpt lat="47.12885" lon="7.34531">
        <ele>430.34</ele>
        <time>2021-04-09T11:09:34.988Z</time>
      </trkpt>
      <trkpt lat="47.12849" lon="7.34512">
        <ele>430.58</ele>
        <time>2021-04-09T11:10:19.606Z</time>
      </trkpt>
      <trkpt lat="47.12839" lon="7.34506">
        <ele>430.6</ele>
        <time>2021-04-09T11:10:31.686Z</time>
      </trkpt>
      <trkpt lat="47.12829" lon="7.34498">
        <ele>430.65</ele>
        <time>2021-04-09T11:10:44.728Z</time>
      </trkpt>
      <trkpt lat="47.12819" lon="7.34489">
        <ele>430.54</ele>
        <time>2021-04-09T11:10:49.106Z</time>
      </trkpt>
      <trkpt lat="47.12813" lon="7.34484">
        <ele>430.63</ele>
        <time>2021-04-09T11:10:57.719Z</time>
      </trkpt>
      <trkpt lat="47.12809" lon="7.34479">
        <ele>430.57</ele>
        <time>2021-04-09T11:10:59.627Z</time>
      </trkpt>
      <trkpt lat="47.12806" lon="7.34471">
        <ele>430.55</ele>
        <time>2021-04-09T11:11:06.139Z</time>
      </trkpt>
      <trkpt lat="47.12804" lon="7.34465">
        <ele>430.71</ele>
        <time>2021-04-09T11:11:13.514Z</time>
      </trkpt>
      <trkpt lat="47.12803" lon="7.34457">
        <ele>430.77</ele>
        <time>2021-04-09T11:11:20.269Z</time>
      </trkpt>
      <trkpt lat="47.12803" lon="7.3445">
        <ele>430.86</ele>
        <time>2021-04-09T11:11:26.602Z</time>
      </trkpt>
      <trkpt lat="47.12803" lon="7.34443">
        <ele>430.93</ele>
        <time>2021-04-09T11:11:32.652Z</time>
      </trkpt>
      <trkpt lat="47.12805" lon="7.34436">
        <ele>430.88</ele>
        <time>2021-04-09T11:11:34.573Z</time>
      </trkpt>
      <trkpt lat="47.12806" lon="7.3443">
        <ele>430.83</ele>
        <time>2021-04-09T11:11:36.091Z</time>
      </trkpt>
      <trkpt lat="47.12809" lon="7.34424">
        <ele>430.92</ele>
        <time>2021-04-09T11:11:42.743Z</time>
      </trkpt>
      <trkpt lat="47.12814" lon="7.34415">
        <ele>430.83</ele>
        <time>2021-04-09T11:11:45.618Z</time>
      </trkpt>
      <trkpt lat="47.12829" lon="7.34391">
        <ele>430.71</ele>
        <time>2021-04-09T11:12:08.129Z</time>
      </trkpt>
      <trkpt lat="47.1284" lon="7.34373">
        <ele>430.74</ele>
        <time>2021-04-09T11:12:26.534Z</time>
      </trkpt>
      <trkpt lat="47.12847" lon="7.34362">
        <ele>430.67</ele>
        <time>2021-04-09T11:12:36.733Z</time>
      </trkpt>
      <trkpt lat="47.12851" lon="7.34353">
        <ele>430.6</ele>
        <time>2021-04-09T11:12:39.457Z</time>
      </trkpt>
      <trkpt lat="47.12856" lon="7.34341">
        <ele>430.69</ele>
        <time>2021-04-09T11:12:50.974Z</time>
      </trkpt>
      <trkpt lat="47.1286" lon="7.34325">
        <ele>430.45</ele>
        <time>2021-04-09T11:12:54.734Z</time>
      </trkpt>
      <trkpt lat="47.12865" lon="7.34305">
        <ele>430.17</ele>
        <time>2021-04-09T11:12:59.511Z</time>
      </trkpt>
      <trkpt lat="47.12868" lon="7.34297">
        <ele>430.2</ele>
        <time>2021-04-09T11:13:06.660Z</time>
      </trkpt>
      <trkpt lat="47.12868" lon="7.34295">
        <ele>430.2</ele>
        <time>2021-04-09T11:13:08.156Z</time>
      </trkpt>
      <trkpt lat="47.12857" lon="7.34287">
        <ele>429.45</ele>
        <time>2021-04-09T11:13:10.863Z</time>
      </trkpt>
      <trkpt lat="47.12843" lon="7.34278">
        <ele>429.21</ele>
        <time>2021-04-09T11:13:16.122Z</time>
      </trkpt>
      <trkpt lat="47.12833" lon="7.3427">
        <ele>429.16</ele>
        <time>2021-04-09T11:13:27.850Z</time>
      </trkpt>
      <trkpt lat="47.12824" lon="7.34261">
        <ele>429.2</ele>
        <time>2021-04-09T11:13:40.235Z</time>
      </trkpt>
      <trkpt lat="47.12817" lon="7.34253">
        <ele>429.37</ele>
        <time>2021-04-09T11:13:52.060Z</time>
      </trkpt>
      <trkpt lat="47.12815" lon="7.34251">
        <ele>429.42</ele>
        <time>2021-04-09T11:13:55.341Z</time>
      </trkpt>
      <trkpt lat="47.12809" lon="7.34243">
        <ele>429.18</ele>
        <time>2021-04-09T11:13:57.720Z</time>
      </trkpt>
      <trkpt lat="47.12806" lon="7.34238">
        <ele>429.2</ele>
        <time>2021-04-09T11:14:02.917Z</time>
      </trkpt>
      <trkpt lat="47.12804" lon="7.34232">
        <ele>429.24</ele>
        <time>2021-04-09T11:14:08.353Z</time>
      </trkpt>
      <trkpt lat="47.12802" lon="7.34227">
        <ele>429.3</ele>
        <time>2021-04-09T11:14:13.393Z</time>
      </trkpt>
      <trkpt lat="47.12801" lon="7.34221">
        <ele>429.2</ele>
        <time>2021-04-09T11:14:14.709Z</time>
      </trkpt>
      <trkpt lat="47.128" lon="7.34218">
        <ele>429.33</ele>
        <time>2021-04-09T11:14:19.294Z</time>
      </trkpt>
      <trkpt lat="47.128" lon="7.34213">
        <ele>429.41</ele>
        <time>2021-04-09T11:14:24.061Z</time>
      </trkpt>
      <trkpt lat="47.12801" lon="7.34197">
        <ele>429.42</ele>
        <time>2021-04-09T11:14:36.182Z</time>
      </trkpt>
      <trkpt lat="47.12802" lon="7.34174">
        <ele>429.52</ele>
        <time>2021-04-09T11:14:54.490Z</time>
      </trkpt>
      <trkpt lat="47.12803" lon="7.34156">
        <ele>429.6</ele>
        <time>2021-04-09T11:15:08.856Z</time>
      </trkpt>
      <trkpt lat="47.12802" lon="7.34133">
        <ele>429.83</ele>
        <time>2021-04-09T11:15:28.772Z</time>
      </trkpt>
      <trkpt lat="47.12801" lon="7.34115">
        <ele>429.89</ele>
        <time>2021-04-09T11:15:42.913Z</time>
      </trkpt>
      <trkpt lat="47.12799" lon="7.34097">
        <ele>430.04</ele>
        <time>2021-04-09T11:15:58.254Z</time>
      </trkpt>
      <trkpt lat="47.12798" lon="7.34085">
        <ele>429.98</ele>
        <time>2021-04-09T11:16:01.414Z</time>
      </trkpt>
      <trkpt lat="47.12794" lon="7.34067">
        <ele>430.03</ele>
        <time>2021-04-09T11:16:16.100Z</time>
      </trkpt>
      <trkpt lat="47.12791" lon="7.34052">
        <ele>430.04</ele>
        <time>2021-04-09T11:16:27.897Z</time>
      </trkpt>
      <trkpt lat="47.12785" lon="7.34035">
        <ele>429.97</ele>
        <time>2021-04-09T11:16:41.133Z</time>
      </trkpt>
      <trkpt lat="47.12778" lon="7.34015">
        <ele>429.86</ele>
        <time>2021-04-09T11:16:56.287Z</time>
      </trkpt>
      <trkpt lat="47.12771" lon="7.33995">
        <ele>429.78</ele>
        <time>2021-04-09T11:17:11.864Z</time>
      </trkpt>
      <trkpt lat="47.12767" lon="7.33988">
        <ele>429.71</ele>
        <time>2021-04-09T11:17:14.129Z</time>
      </trkpt>
      <trkpt lat="47.12762" lon="7.33977">
        <ele>429.62</ele>
        <time>2021-04-09T11:17:17.462Z</time>
      </trkpt>
      <trkpt lat="47.12752" lon="7.33957">
        <ele>429.61</ele>
        <time>2021-04-09T11:17:35.861Z</time>
      </trkpt>
      <trkpt lat="47.12744" lon="7.33942">
        <ele>429.86</ele>
        <time>2021-04-09T11:17:53.175Z</time>
      </trkpt>
      <trkpt lat="47.12716" lon="7.33888">
        <ele>429.91</ele>
        <time>2021-04-09T11:18:44.470Z</time>
      </trkpt>
      <trkpt lat="47.1271" lon="7.33872">
        <ele>429.99</ele>
        <time>2021-04-09T11:18:58.992Z</time>
      </trkpt>
      <trkpt lat="47.12704" lon="7.33854">
        <ele>429.86</ele>
        <time>2021-04-09T11:19:04.074Z</time>
      </trkpt>
      <trkpt lat="47.12697" lon="7.33829">
        <ele>429.62</ele>
        <time>2021-04-09T11:19:10.620Z</time>
      </trkpt>
      <trkpt lat="47.1269" lon="7.33809">
        <ele>429.36</ele>
        <time>2021-04-09T11:19:15.804Z</time>
      </trkpt>
      <trkpt lat="47.12683" lon="7.33796">
        <ele>429.33</ele>
        <time>2021-04-09T11:19:27.720Z</time>
      </trkpt>
      <trkpt lat="47.12675" lon="7.33786">
        <ele>429.29</ele>
        <time>2021-04-09T11:19:38.630Z</time>
      </trkpt>
      <trkpt lat="47.12666" lon="7.33777">
        <ele>429.32</ele>
        <time>2021-04-09T11:19:50.908Z</time>
      </trkpt>
      <trkpt lat="47.12643" lon="7.33758">
        <ele>430.13</ele>
        <time>2021-04-09T11:20:31.264Z</time>
      </trkpt>
      <trkpt lat="47.12639" lon="7.33755">
        <ele>430.22</ele>
        <time>2021-04-09T11:20:37.311Z</time>
      </trkpt>
      <trkpt lat="47.1263" lon="7.33743">
        <ele>430.17</ele>
        <time>2021-04-09T11:20:49.879Z</time>
      </trkpt>
      <trkpt lat="47.12621" lon="7.33728">
        <ele>430.15</ele>
        <time>2021-04-09T11:21:04.510Z</time>
      </trkpt>
      <trkpt lat="47.12612" lon="7.33718">
        <ele>430.14</ele>
        <time>2021-04-09T11:21:16.748Z</time>
      </trkpt>
      <trkpt lat="47.12595" lon="7.337">
        <ele>429.79</ele>
        <time>2021-04-09T11:21:23.871Z</time>
      </trkpt>
      <trkpt lat="47.12574" lon="7.33683">
        <ele>429.48</ele>
        <time>2021-04-09T11:21:32.416Z</time>
      </trkpt>
      <trkpt lat="47.12557" lon="7.3367">
        <ele>429.54</ele>
        <time>2021-04-09T11:21:54.107Z</time>
      </trkpt>
      <trkpt lat="47.12549" lon="7.33662">
        <ele>429.49</ele>
        <time>2021-04-09T11:22:03.965Z</time>
      </trkpt>
      <trkpt lat="47.12538" lon="7.33649">
        <ele>429.49</ele>
        <time>2021-04-09T11:22:19.484Z</time>
      </trkpt>
      <trkpt lat="47.12526" lon="7.33627">
        <ele>429.91</ele>
        <time>2021-04-09T11:22:45.867Z</time>
      </trkpt>
      <trkpt lat="47.1252" lon="7.33619">
        <ele>429.98</ele>
        <time>2021-04-09T11:22:55.539Z</time>
      </trkpt>
      <trkpt lat="47.12516" lon="7.33614">
        <ele>429.91</ele>
        <time>2021-04-09T11:22:57.401Z</time>
      </trkpt>
      <trkpt lat="47.12512" lon="7.33609">
        <ele>429.83</ele>
        <time>2021-04-09T11:22:59.219Z</time>
      </trkpt>
      <trkpt lat="47.12505" lon="7.33604">
        <ele>429.95</ele>
        <time>2021-04-09T11:23:09.183Z</time>
      </trkpt>
      <trkpt lat="47.12495" lon="7.33598">
        <ele>429.91</ele>
        <time>2021-04-09T11:23:20.421Z</time>
      </trkpt>
      <trkpt lat="47.12487" lon="7.33596">
        <ele>429.86</ele>
        <time>2021-04-09T11:23:28.573Z</time>
      </trkpt>
      <trkpt lat="47.1248" lon="7.33596">
        <ele>429.79</ele>
        <time>2021-04-09T11:23:31.165Z</time>
      </trkpt>
      <trkpt lat="47.12474" lon="7.33599">
        <ele>429.64</ele>
        <time>2021-04-09T11:23:33.151Z</time>
      </trkpt>
      <trkpt lat="47.12463" lon="7.33607">
        <ele>429.67</ele>
        <time>2021-04-09T11:23:46.954Z</time>
      </trkpt>
      <trkpt lat="47.12453" lon="7.33616">
        <ele>429.84</ele>
        <time>2021-04-09T11:24:01.820Z</time>
      </trkpt>
      <trkpt lat="47.12441" lon="7.33628">
        <ele>430.08</ele>
        <time>2021-04-09T11:24:20.626Z</time>
      </trkpt>
      <trkpt lat="47.1243" lon="7.33642">
        <ele>430.01</ele>
        <time>2021-04-09T11:24:35.526Z</time>
      </trkpt>
      <trkpt lat="47.1242" lon="7.33654">
        <ele>430.09</ele>
        <time>2021-04-09T11:24:50.573Z</time>
      </trkpt>
      <trkpt lat="47.12415" lon="7.33659">
        <ele>430.24</ele>
        <time>2021-04-09T11:24:59.177Z</time>
      </trkpt>
      <trkpt lat="47.12407" lon="7.33662">
        <ele>430.17</ele>
        <time>2021-04-09T11:25:02.297Z</time>
      </trkpt>
      <trkpt lat="47.12396" lon="7.33664">
        <ele>430.48</ele>
        <time>2021-04-09T11:25:18.681Z</time>
      </trkpt>
      <trkpt lat="47.12382" lon="7.33664">
        <ele>430.66</ele>
        <time>2021-04-09T11:25:36.127Z</time>
      </trkpt>
      <trkpt lat="47.12368" lon="7.33664">
        <ele>431</ele>
        <time>2021-04-09T11:25:55.923Z</time>
      </trkpt>
      <trkpt lat="47.12358" lon="7.33664">
        <ele>430.98</ele>
        <time>2021-04-09T11:26:06.591Z</time>
      </trkpt>
      <trkpt lat="47.12349" lon="7.33663">
        <ele>430.91</ele>
        <time>2021-04-09T11:26:10.035Z</time>
      </trkpt>
      <trkpt lat="47.1234" lon="7.33659">
        <ele>430.84</ele>
        <time>2021-04-09T11:26:13.639Z</time>
      </trkpt>
      <trkpt lat="47.12328" lon="7.33651">
        <ele>430.74</ele>
        <time>2021-04-09T11:26:18.680Z</time>
      </trkpt>
      <trkpt lat="47.12319" lon="7.33644">
        <ele>430.67</ele>
        <time>2021-04-09T11:26:28.808Z</time>
      </trkpt>
      <trkpt lat="47.12313" lon="7.33637">
        <ele>430.61</ele>
        <time>2021-04-09T11:26:31.729Z</time>
      </trkpt>
      <trkpt lat="47.12304" lon="7.33625">
        <ele>430.62</ele>
        <time>2021-04-09T11:26:45.191Z</time>
      </trkpt>
      <trkpt lat="47.12296" lon="7.33614">
        <ele>430.51</ele>
        <time>2021-04-09T11:26:49.245Z</time>
      </trkpt>
      <trkpt lat="47.12281" lon="7.33586">
        <ele>430.84</ele>
        <time>2021-04-09T11:27:19.701Z</time>
      </trkpt>
      <trkpt lat="47.12258" lon="7.33547">
        <ele>431.33</ele>
        <time>2021-04-09T11:28:03.968Z</time>
      </trkpt>
      <trkpt lat="47.12229" lon="7.33499">
        <ele>431.88</ele>
        <time>2021-04-09T11:28:58.250Z</time>
      </trkpt>
      <trkpt lat="47.12221" lon="7.33486">
        <ele>431.8</ele>
        <time>2021-04-09T11:29:10.140Z</time>
      </trkpt>
      <trkpt lat="47.12215" lon="7.33475">
        <ele>431.72</ele>
        <time>2021-04-09T11:29:13.772Z</time>
      </trkpt>
      <trkpt lat="47.122" lon="7.33448">
        <ele>431.66</ele>
        <time>2021-04-09T11:29:38.875Z</time>
      </trkpt>
      <trkpt lat="47.12189" lon="7.33429">
        <ele>431.82</ele>
        <time>2021-04-09T11:29:59.302Z</time>
      </trkpt>
      <trkpt lat="47.12175" lon="7.33408">
        <ele>431.82</ele>
        <time>2021-04-09T11:30:21.295Z</time>
      </trkpt>
      <trkpt lat="47.12164" lon="7.33392">
        <ele>431.72</ele>
        <time>2021-04-09T11:30:36.778Z</time>
      </trkpt>
      <trkpt lat="47.12156" lon="7.33382">
        <ele>431.55</ele>
        <time>2021-04-09T11:30:40.372Z</time>
      </trkpt>
      <trkpt lat="47.12152" lon="7.33377">
        <ele>431.49</ele>
        <time>2021-04-09T11:30:42.280Z</time>
      </trkpt>
      <trkpt lat="47.12145" lon="7.33368">
        <ele>431.56</ele>
        <time>2021-04-09T11:30:53.263Z</time>
      </trkpt>
      <trkpt lat="47.12134" lon="7.33354">
        <ele>431.13</ele>
        <time>2021-04-09T11:30:57.540Z</time>
      </trkpt>
      <trkpt lat="47.12119" lon="7.33338">
        <ele>431.16</ele>
        <time>2021-04-09T11:31:18.224Z</time>
      </trkpt>
      <trkpt lat="47.1211" lon="7.33326">
        <ele>431.19</ele>
        <time>2021-04-09T11:31:31.894Z</time>
      </trkpt>
      <trkpt lat="47.12107" lon="7.33322">
        <ele>431.2</ele>
        <time>2021-04-09T11:31:36.451Z</time>
      </trkpt>
      <trkpt lat="47.12095" lon="7.33304">
        <ele>430.9</ele>
        <time>2021-04-09T11:31:42.225Z</time>
      </trkpt>
      <trkpt lat="47.12088" lon="7.33296">
        <ele>430.84</ele>
        <time>2021-04-09T11:31:51.058Z</time>
      </trkpt>
      <trkpt lat="47.1208" lon="7.33286">
        <ele>430.84</ele>
        <time>2021-04-09T11:32:02.605Z</time>
      </trkpt>
      <trkpt lat="47.12075" lon="7.33279">
        <ele>430.84</ele>
        <time>2021-04-09T11:32:10.197Z</time>
      </trkpt>
      <trkpt lat="47.12075" lon="7.33276">
        <ele>430.9</ele>
        <time>2021-04-09T11:32:13.269Z</time>
      </trkpt>
      <trkpt lat="47.12074" lon="7.33276">
        <ele>430.9</ele>
        <time>2021-04-09T11:32:14.368Z</time>
      </trkpt>
      <trkpt lat="47.12065" lon="7.33249">
        <ele>430.97</ele>
        <time>2021-04-09T11:32:37.588Z</time>
      </trkpt>
      <trkpt lat="47.12062" lon="7.33244">
        <ele>430.74</ele>
        <time>2021-04-09T11:32:38.679Z</time>
      </trkpt>
      <trkpt lat="47.12056" lon="7.33235">
        <ele>430.93</ele>
        <time>2021-04-09T11:32:50.505Z</time>
      </trkpt>
      <trkpt lat="47.12056" lon="7.33235">
        <ele>430.93</ele>
        <time>2021-04-09T11:32:50.505Z</time>
      </trkpt>
      <trkpt lat="47.12057" lon="7.33226">
        <ele>431.46</ele>
        <time>2021-04-09T11:33:06.038Z</time>
      </trkpt>
      <trkpt lat="47.12058" lon="7.3322">
        <ele>431.8</ele>
        <time>2021-04-09T11:33:16.169Z</time>
      </trkpt>
      <trkpt lat="47.12063" lon="7.3321">
        <ele>431.93</ele>
        <time>2021-04-09T11:33:26.977Z</time>
      </trkpt>
      <trkpt lat="47.12066" lon="7.33203">
        <ele>431.93</ele>
        <time>2021-04-09T11:33:33.166Z</time>
      </trkpt>
      <trkpt lat="47.12068" lon="7.33198">
        <ele>431.69</ele>
        <time>2021-04-09T11:33:34.039Z</time>
      </trkpt>
      <trkpt lat="47.1207" lon="7.33189">
        <ele>431.69</ele>
        <time>2021-04-09T11:33:41.122Z</time>
      </trkpt>
      <trkpt lat="47.12074" lon="7.33175">
        <ele>430.48</ele>
        <time>2021-04-09T11:33:43.504Z</time>
      </trkpt>
      <trkpt lat="47.12076" lon="7.33168">
        <ele>430.48</ele>
        <time>2021-04-09T11:33:49.184Z</time>
      </trkpt>
      <trkpt lat="47.12079" lon="7.33149">
        <ele>430.24</ele>
        <time>2021-04-09T11:33:53.622Z</time>
      </trkpt>
      <trkpt lat="47.12084" lon="7.33128">
        <ele>430.48</ele>
        <time>2021-04-09T11:34:13.094Z</time>
      </trkpt>
      <trkpt lat="47.12085" lon="7.3312">
        <ele>430.72</ele>
        <time>2021-04-09T11:34:23.188Z</time>
      </trkpt>
      <trkpt lat="47.12087" lon="7.33109">
        <ele>431.21</ele>
        <time>2021-04-09T11:34:39.498Z</time>
      </trkpt>
      <trkpt lat="47.12089" lon="7.33103">
        <ele>430.97</ele>
        <time>2021-04-09T11:34:40.571Z</time>
      </trkpt>
      <trkpt lat="47.12089" lon="7.33098">
        <ele>430.88</ele>
        <time>2021-04-09T11:34:41.605Z</time>
      </trkpt>
      <trkpt lat="47.12084" lon="7.33098">
        <ele>431.1</ele>
        <time>2021-04-09T11:34:50.814Z</time>
      </trkpt>
      <trkpt lat="47.12078" lon="7.33097">
        <ele>431.32</ele>
        <time>2021-04-09T11:35:00.778Z</time>
      </trkpt>
      <trkpt lat="47.12067" lon="7.33098">
        <ele>431.38</ele>
        <time>2021-04-09T11:35:13.531Z</time>
      </trkpt>
      <trkpt lat="47.12061" lon="7.33097">
        <ele>431.34</ele>
        <time>2021-04-09T11:35:19.558Z</time>
      </trkpt>
      <trkpt lat="47.12057" lon="7.33096">
        <ele>431.33</ele>
        <time>2021-04-09T11:35:23.856Z</time>
      </trkpt>
      <trkpt lat="47.12053" lon="7.33094">
        <ele>431.36</ele>
        <time>2021-04-09T11:35:28.825Z</time>
      </trkpt>
      <trkpt lat="47.12051" lon="7.33092">
        <ele>431.26</ele>
        <time>2021-04-09T11:35:29.457Z</time>
      </trkpt>
      <trkpt lat="47.12051" lon="7.33091">
        <ele>431.26</ele>
        <time>2021-04-09T11:35:30.205Z</time>
      </trkpt>
      <trkpt lat="47.1205" lon="7.33091">
        <ele>431.16</ele>
        <time>2021-04-09T11:35:30.436Z</time>
      </trkpt>
      <trkpt lat="47.12043" lon="7.33084">
        <ele>431.23</ele>
        <time>2021-04-09T11:35:40.507Z</time>
      </trkpt>
      <trkpt lat="47.12038" lon="7.3308">
        <ele>431.26</ele>
        <time>2021-04-09T11:35:47.084Z</time>
      </trkpt>
      <trkpt lat="47.12032" lon="7.33077">
        <ele>431.22</ele>
        <time>2021-04-09T11:35:53.437Z</time>
      </trkpt>
      <trkpt lat="47.12026" lon="7.33074">
        <ele>431.19</ele>
        <time>2021-04-09T11:35:59.934Z</time>
      </trkpt>
      <trkpt lat="47.12022" lon="7.3307">
        <ele>430.89</ele>
        <time>2021-04-09T11:36:00.994Z</time>
      </trkpt>
      <trkpt lat="47.12016" lon="7.33064">
        <ele>431.14</ele>
        <time>2021-04-09T11:36:12.651Z</time>
      </trkpt>
      <trkpt lat="47.12001" lon="7.33053">
        <ele>431.42</ele>
        <time>2021-04-09T11:36:34.411Z</time>
      </trkpt>
      <trkpt lat="47.11993" lon="7.33046">
        <ele>431.18</ele>
        <time>2021-04-09T11:36:37.261Z</time>
      </trkpt>
      <trkpt lat="47.11988" lon="7.33041">
        <ele>431.15</ele>
        <time>2021-04-09T11:36:43.440Z</time>
      </trkpt>
      <trkpt lat="47.11985" lon="7.33035">
        <ele>431.05</ele>
        <time>2021-04-09T11:36:45.102Z</time>
      </trkpt>
      <trkpt lat="47.11973" lon="7.33011">
        <ele>431.17</ele>
        <time>2021-04-09T11:37:08.660Z</time>
      </trkpt>
      <trkpt lat="47.11968" lon="7.32998">
        <ele>431.21</ele>
        <time>2021-04-09T11:37:20.250Z</time>
      </trkpt>
      <trkpt lat="47.11962" lon="7.32985">
        <ele>431.17</ele>
        <time>2021-04-09T11:37:31.365Z</time>
      </trkpt>
      <trkpt lat="47.11957" lon="7.32976">
        <ele>431.39</ele>
        <time>2021-04-09T11:37:43.030Z</time>
      </trkpt>
      <trkpt lat="47.1195" lon="7.32964">
        <ele>431.69</ele>
        <time>2021-04-09T11:37:58.913Z</time>
      </trkpt>
      <trkpt lat="47.11944" lon="7.32952">
        <ele>431.73</ele>
        <time>2021-04-09T11:38:10.472Z</time>
      </trkpt>
      <trkpt lat="47.11934" lon="7.32931">
        <ele>431.76</ele>
        <time>2021-04-09T11:38:29.954Z</time>
      </trkpt>
      <trkpt lat="47.11927" lon="7.32918">
        <ele>431.4</ele>
        <time>2021-04-09T11:38:33.190Z</time>
      </trkpt>
      <trkpt lat="47.11912" lon="7.32887">
        <ele>431.82</ele>
        <time>2021-04-09T11:39:06.616Z</time>
      </trkpt>
      <trkpt lat="47.11901" lon="7.32866">
        <ele>431.92</ele>
        <time>2021-04-09T11:39:27.503Z</time>
      </trkpt>
      <trkpt lat="47.11886" lon="7.32839">
        <ele>431.95</ele>
        <time>2021-04-09T11:39:53.886Z</time>
      </trkpt>
      <trkpt lat="47.11886" lon="7.32838">
        <ele>431.95</ele>
        <time>2021-04-09T11:39:54.634Z</time>
      </trkpt>
      <trkpt lat="47.11882" lon="7.32831">
        <ele>431.98</ele>
        <time>2021-04-09T11:40:01.789Z</time>
      </trkpt>
      <trkpt lat="47.11878" lon="7.32824">
        <ele>431.89</ele>
        <time>2021-04-09T11:40:03.963Z</time>
      </trkpt>
      <trkpt lat="47.11873" lon="7.32814">
        <ele>431.97</ele>
        <time>2021-04-09T11:40:14.129Z</time>
      </trkpt>
      <trkpt lat="47.11869" lon="7.32808">
        <ele>432.07</ele>
        <time>2021-04-09T11:40:21.612Z</time>
      </trkpt>
      <trkpt lat="47.11868" lon="7.32802">
        <ele>431.99</ele>
        <time>2021-04-09T11:40:23.002Z</time>
      </trkpt>
      <trkpt lat="47.11867" lon="7.32798">
        <ele>432</ele>
        <time>2021-04-09T11:40:26.294Z</time>
      </trkpt>
      <trkpt lat="47.11867" lon="7.32791">
        <ele>432.08</ele>
        <time>2021-04-09T11:40:32.483Z</time>
      </trkpt>
      <trkpt lat="47.11867" lon="7.32782">
        <ele>432.12</ele>
        <time>2021-04-09T11:40:39.645Z</time>
      </trkpt>
      <trkpt lat="47.11868" lon="7.32767">
        <ele>432.06</ele>
        <time>2021-04-09T11:40:49.993Z</time>
      </trkpt>
      <trkpt lat="47.11869" lon="7.32749">
        <ele>432.18</ele>
        <time>2021-04-09T11:41:04.832Z</time>
      </trkpt>
      <trkpt lat="47.1187" lon="7.32732">
        <ele>432.03</ele>
        <time>2021-04-09T11:41:08.971Z</time>
      </trkpt>
      <trkpt lat="47.11873" lon="7.32705">
        <ele>431.78</ele>
        <time>2021-04-09T11:41:15.564Z</time>
      </trkpt>
      <trkpt lat="47.11874" lon="7.32681">
        <ele>431.48</ele>
        <time>2021-04-09T11:41:21.019Z</time>
      </trkpt>
      <trkpt lat="47.11874" lon="7.32645">
        <ele>431.92</ele>
        <time>2021-04-09T11:41:53.256Z</time>
      </trkpt>
      <trkpt lat="47.11873" lon="7.32628">
        <ele>432.04</ele>
        <time>2021-04-09T11:42:07.356Z</time>
      </trkpt>
      <trkpt lat="47.11872" lon="7.32623">
        <ele>432.11</ele>
        <time>2021-04-09T11:42:12.116Z</time>
      </trkpt>
      <trkpt lat="47.11868" lon="7.32601">
        <ele>432.2</ele>
        <time>2021-04-09T11:42:30.110Z</time>
      </trkpt>
      <trkpt lat="47.11865" lon="7.32585">
        <ele>432.42</ele>
        <time>2021-04-09T11:42:45.223Z</time>
      </trkpt>
      <trkpt lat="47.11861" lon="7.32559">
        <ele>432.46</ele>
        <time>2021-04-09T11:43:05.577Z</time>
      </trkpt>
      <trkpt lat="47.1186" lon="7.32549">
        <ele>432.48</ele>
        <time>2021-04-09T11:43:13.346Z</time>
      </trkpt>
      <trkpt lat="47.11859" lon="7.32543">
        <ele>432.53</ele>
        <time>2021-04-09T11:43:18.532Z</time>
      </trkpt>
      <trkpt lat="47.11857" lon="7.32538">
        <ele>432.47</ele>
        <time>2021-04-09T11:43:19.899Z</time>
      </trkpt>
      <trkpt lat="47.11853" lon="7.32532">
        <ele>432.37</ele>
        <time>2021-04-09T11:43:21.824Z</time>
      </trkpt>
      <trkpt lat="47.11835" lon="7.32508">
        <ele>432.47</ele>
        <time>2021-04-09T11:43:49.592Z</time>
      </trkpt>
      <trkpt lat="47.11825" lon="7.32493">
        <ele>432.47</ele>
        <time>2021-04-09T11:44:05.302Z</time>
      </trkpt>
      <trkpt lat="47.11814" lon="7.32479">
        <ele>432.69</ele>
        <time>2021-04-09T11:44:23.873Z</time>
      </trkpt>
      <trkpt lat="47.11806" lon="7.3247">
        <ele>432.52</ele>
        <time>2021-04-09T11:44:27.292Z</time>
      </trkpt>
      <trkpt lat="47.11791" lon="7.32451">
        <ele>432.66</ele>
        <time>2021-04-09T11:44:50.571Z</time>
      </trkpt>
      <trkpt lat="47.11787" lon="7.32448">
        <ele>432.55</ele>
        <time>2021-04-09T11:44:51.966Z</time>
      </trkpt>
      <trkpt lat="47.11773" lon="7.32483">
        <ele>432.51</ele>
        <time>2021-04-09T11:45:21.681Z</time>
      </trkpt>
      <trkpt lat="47.11763" lon="7.32508">
        <ele>432.47</ele>
        <time>2021-04-09T11:45:42.723Z</time>
      </trkpt>
      <trkpt lat="47.1175" lon="7.32538">
        <ele>432.75</ele>
        <time>2021-04-09T11:46:12.487Z</time>
      </trkpt>
      <trkpt lat="47.11733" lon="7.32579">
        <ele>432.65</ele>
        <time>2021-04-09T11:46:46.798Z</time>
      </trkpt>
      <trkpt lat="47.11733" lon="7.32579">
        <ele>432.65</ele>
        <time>2021-04-09T11:46:46.798Z</time>
      </trkpt>
      <trkpt lat="47.11734" lon="7.32577">
        <ele>432.67</ele>
        <time>2021-04-09T11:46:48.881Z</time>
      </trkpt>
      <trkpt lat="47.11726" lon="7.3257">
        <ele>432.52</ele>
        <time>2021-04-09T11:46:52.070Z</time>
      </trkpt>
      <trkpt lat="47.11717" lon="7.32559">
        <ele>432.56</ele>
        <time>2021-04-09T11:47:05.356Z</time>
      </trkpt>
      <trkpt lat="47.11709" lon="7.32549">
        <ele>432.82</ele>
        <time>2021-04-09T11:47:20.289Z</time>
      </trkpt>
      <trkpt lat="47.11706" lon="7.32542">
        <ele>432.82</ele>
        <time>2021-04-09T11:47:26.478Z</time>
      </trkpt>
      <trkpt lat="47.11705" lon="7.32534">
        <ele>432.83</ele>
        <time>2021-04-09T11:47:32.666Z</time>
      </trkpt>
      <trkpt lat="47.11704" lon="7.32526">
        <ele>432.81</ele>
        <time>2021-04-09T11:47:38.432Z</time>
      </trkpt>
      <trkpt lat="47.11705" lon="7.3251">
        <ele>432.9</ele>
        <time>2021-04-09T11:47:51.434Z</time>
      </trkpt>
      <trkpt lat="47.11705" lon="7.32495">
        <ele>432.94</ele>
        <time>2021-04-09T11:48:03.074Z</time>
      </trkpt>
      <trkpt lat="47.11704" lon="7.32494">
        <ele>432.84</ele>
        <time>2021-04-09T11:48:03.353Z</time>
      </trkpt>
      <trkpt lat="47.11704" lon="7.32493">
        <ele>432.84</ele>
        <time>2021-04-09T11:48:04.101Z</time>
      </trkpt>
      <trkpt lat="47.11703" lon="7.3247">
        <ele>432.73</ele>
        <time>2021-04-09T11:48:19.671Z</time>
      </trkpt>
      <trkpt lat="47.11701" lon="7.32438">
        <ele>432.54</ele>
        <time>2021-04-09T11:48:27.912Z</time>
      </trkpt>
      <trkpt lat="47.11698" lon="7.32402">
        <ele>432.72</ele>
        <time>2021-04-09T11:48:56.990Z</time>
      </trkpt>
      <trkpt lat="47.1169" lon="7.32333">
        <ele>432.78</ele>
        <time>2021-04-09T11:49:49.969Z</time>
      </trkpt>
      <trkpt lat="47.11681" lon="7.32278">
        <ele>433.01</ele>
        <time>2021-04-09T11:50:34.741Z</time>
      </trkpt>
      <trkpt lat="47.11675" lon="7.32251">
        <ele>432.98</ele>
        <time>2021-04-09T11:50:55.498Z</time>
      </trkpt>
      <trkpt lat="47.11668" lon="7.32217">
        <ele>433.13</ele>
        <time>2021-04-09T11:51:23.677Z</time>
      </trkpt>
      <trkpt lat="47.11668" lon="7.32217">
        <ele>433.14</ele>
        <time>2021-04-09T11:51:23.677Z</time>
      </trkpt>
      <trkpt lat="47.11668" lon="7.32216">
        <ele>433.14</ele>
        <time>2021-04-09T11:51:24.425Z</time>
      </trkpt>
      <trkpt lat="47.11662" lon="7.32198">
        <ele>433.16</ele>
        <time>2021-04-09T11:51:39.625Z</time>
      </trkpt>
      <trkpt lat="47.11657" lon="7.32182">
        <ele>433.08</ele>
        <time>2021-04-09T11:51:51.575Z</time>
      </trkpt>
      <trkpt lat="47.11652" lon="7.32169">
        <ele>433.23</ele>
        <time>2021-04-09T11:52:04.494Z</time>
      </trkpt>
      <trkpt lat="47.1165" lon="7.32155">
        <ele>433.1</ele>
        <time>2021-04-09T11:52:07.945Z</time>
      </trkpt>
      <trkpt lat="47.11648" lon="7.3213">
        <ele>433.12</ele>
        <time>2021-04-09T11:52:26.982Z</time>
      </trkpt>
      <trkpt lat="47.11647" lon="7.3211">
        <ele>433.28</ele>
        <time>2021-04-09T11:52:43.791Z</time>
      </trkpt>
      <trkpt lat="47.11647" lon="7.32103">
        <ele>433.19</ele>
        <time>2021-04-09T11:52:45.368Z</time>
      </trkpt>
      <trkpt lat="47.11649" lon="7.32096">
        <ele>433.09</ele>
        <time>2021-04-09T11:52:47.070Z</time>
      </trkpt>
      <trkpt lat="47.1165" lon="7.32093">
        <ele>433.04</ele>
        <time>2021-04-09T11:52:47.796Z</time>
      </trkpt>
      <trkpt lat="47.11652" lon="7.32092">
        <ele>432.99</ele>
        <time>2021-04-09T11:52:48.458Z</time>
      </trkpt>
      <trkpt lat="47.11646" lon="7.32086">
        <ele>433.04</ele>
        <time>2021-04-09T11:52:56.975Z</time>
      </trkpt>
      <trkpt lat="47.11643" lon="7.32084">
        <ele>432.8</ele>
        <time>2021-04-09T11:52:57.734Z</time>
      </trkpt>
      <trkpt lat="47.11637" lon="7.32084">
        <ele>432.17</ele>
        <time>2021-04-09T11:52:59.118Z</time>
      </trkpt>
      <trkpt lat="47.11628" lon="7.32085">
        <ele>431.97</ele>
        <time>2021-04-09T11:53:01.995Z</time>
      </trkpt>
      <trkpt lat="47.11618" lon="7.32087">
        <ele>431.88</ele>
        <time>2021-04-09T11:53:05.787Z</time>
      </trkpt>
      <trkpt lat="47.11612" lon="7.32088">
        <ele>431.79</ele>
        <time>2021-04-09T11:53:07.886Z</time>
      </trkpt>
      <trkpt lat="47.11603" lon="7.32085">
        <ele>432.17</ele>
        <time>2021-04-09T11:53:24.176Z</time>
      </trkpt>
      <trkpt lat="47.11591" lon="7.32076">
        <ele>432.86</ele>
        <time>2021-04-09T11:53:50.284Z</time>
      </trkpt>
      <trkpt lat="47.11583" lon="7.3207">
        <ele>432.87</ele>
        <time>2021-04-09T11:54:00.261Z</time>
      </trkpt>
      <trkpt lat="47.11556" lon="7.32048">
        <ele>433</ele>
        <time>2021-04-09T11:54:35.566Z</time>
      </trkpt>
      <trkpt lat="47.11537" lon="7.32036">
        <ele>433.17</ele>
        <time>2021-04-09T11:55:00.154Z</time>
      </trkpt>
      <trkpt lat="47.11531" lon="7.32033">
        <ele>433.22</ele>
        <time>2021-04-09T11:55:07.665Z</time>
      </trkpt>
      <trkpt lat="47.11491" lon="7.32006">
        <ele>433.34</ele>
        <time>2021-04-09T11:55:57.300Z</time>
      </trkpt>
      <trkpt lat="47.11477" lon="7.31995">
        <ele>433.49</ele>
        <time>2021-04-09T11:56:16.408Z</time>
      </trkpt>
      <trkpt lat="47.1146" lon="7.31979">
        <ele>433.26</ele>
        <time>2021-04-09T11:56:23.747Z</time>
      </trkpt>
      <trkpt lat="47.11471" lon="7.31954">
        <ele>433.04</ele>
        <time>2021-04-09T11:56:31.164Z</time>
      </trkpt>
      <trkpt lat="47.11483" lon="7.31939">
        <ele>433.04</ele>
        <time>2021-04-09T11:56:48.486Z</time>
      </trkpt>
      <trkpt lat="47.11497" lon="7.31924">
        <ele>433.04</ele>
        <time>2021-04-09T11:57:07.535Z</time>
      </trkpt>
      <trkpt lat="47.11507" lon="7.31909">
        <ele>432.6</ele>
        <time>2021-04-09T11:57:11.681Z</time>
      </trkpt>
      <trkpt lat="47.11514" lon="7.31899">
        <ele>432.87</ele>
        <time>2021-04-09T11:57:26.056Z</time>
      </trkpt>
      <trkpt lat="47.11514" lon="7.31899">
        <ele>432.87</ele>
        <time>2021-04-09T11:57:26.056Z</time>
      </trkpt>
      <trkpt lat="47.11525" lon="7.31885">
        <ele>433.13</ele>
        <time>2021-04-09T11:57:45.186Z</time>
      </trkpt>
      <trkpt lat="47.11537" lon="7.31873">
        <ele>433.5</ele>
        <time>2021-04-09T11:58:06.006Z</time>
      </trkpt>
      <trkpt lat="47.1157" lon="7.3185">
        <ele>433.54</ele>
        <time>2021-04-09T11:58:46.568Z</time>
      </trkpt>
      <trkpt lat="47.11578" lon="7.31844">
        <ele>433.46</ele>
        <time>2021-04-09T11:58:49.943Z</time>
      </trkpt>
      <trkpt lat="47.11583" lon="7.31838">
        <ele>433.45</ele>
        <time>2021-04-09T11:58:56.876Z</time>
      </trkpt>
      <trkpt lat="47.11589" lon="7.31827">
        <ele>433.26</ele>
        <time>2021-04-09T11:59:00.019Z</time>
      </trkpt>
      <trkpt lat="47.11606" lon="7.31799">
        <ele>432.96</ele>
        <time>2021-04-09T11:59:09.260Z</time>
      </trkpt>
      <trkpt lat="47.11613" lon="7.31789">
        <ele>432.58</ele>
        <time>2021-04-09T11:59:11.871Z</time>
      </trkpt>
      <trkpt lat="47.11624" lon="7.31771">
        <ele>433.05</ele>
        <time>2021-04-09T11:59:36.381Z</time>
      </trkpt>
      <trkpt lat="47.11632" lon="7.31757">
        <ele>433.22</ele>
        <time>2021-04-09T11:59:52.015Z</time>
      </trkpt>
      <trkpt lat="47.11634" lon="7.31753">
        <ele>433.19</ele>
        <time>2021-04-09T11:59:53.285Z</time>
      </trkpt>
      <trkpt lat="47.11635" lon="7.31748">
        <ele>433.1</ele>
        <time>2021-04-09T11:59:54.375Z</time>
      </trkpt>
      <trkpt lat="47.11635" lon="7.31743">
        <ele>433.07</ele>
        <time>2021-04-09T11:59:55.655Z</time>
      </trkpt>
      <trkpt lat="47.11634" lon="7.31712">
        <ele>432.96</ele>
        <time>2021-04-09T12:00:17.159Z</time>
      </trkpt>
      <trkpt lat="47.11629" lon="7.31544">
        <ele>432.86</ele>
        <time>2021-04-09T12:02:21.311Z</time>
      </trkpt>
      <trkpt lat="47.11629" lon="7.31543">
        <ele>432.86</ele>
        <time>2021-04-09T12:02:22.059Z</time>
      </trkpt>
      <trkpt lat="47.11628" lon="7.31543">
        <ele>432.75</ele>
        <time>2021-04-09T12:02:22.290Z</time>
      </trkpt>
      <trkpt lat="47.11626" lon="7.31478">
        <ele>433.14</ele>
        <time>2021-04-09T12:03:15.243Z</time>
      </trkpt>
      <trkpt lat="47.11625" lon="7.31447">
        <ele>433.07</ele>
        <time>2021-04-09T12:03:37.341Z</time>
      </trkpt>
      <trkpt lat="47.11624" lon="7.31403">
        <ele>433.19</ele>
        <time>2021-04-09T12:04:11.534Z</time>
      </trkpt>
      <trkpt lat="47.11622" lon="7.3136">
        <ele>432.66</ele>
        <time>2021-04-09T12:04:21.343Z</time>
      </trkpt>
      <trkpt lat="47.11621" lon="7.31344">
        <ele>432.81</ele>
        <time>2021-04-09T12:04:35.092Z</time>
      </trkpt>
      <trkpt lat="47.11621" lon="7.31317">
        <ele>433.26</ele>
        <time>2021-04-09T12:05:01.135Z</time>
      </trkpt>
      <trkpt lat="47.11618" lon="7.31249">
        <ele>433.12</ele>
        <time>2021-04-09T12:05:49.864Z</time>
      </trkpt>
      <trkpt lat="47.11617" lon="7.3118">
        <ele>433.34</ele>
        <time>2021-04-09T12:06:43.815Z</time>
      </trkpt>
      <trkpt lat="47.11613" lon="7.31092">
        <ele>433.43</ele>
        <time>2021-04-09T12:07:50.721Z</time>
      </trkpt>
      <trkpt lat="47.11613" lon="7.31074">
        <ele>433.29</ele>
        <time>2021-04-09T12:07:55.172Z</time>
      </trkpt>
      <trkpt lat="47.11624" lon="7.31076">
        <ele>433.24</ele>
        <time>2021-04-09T12:08:06.570Z</time>
      </trkpt>
      <trkpt lat="47.11663" lon="7.31086">
        <ele>433.47</ele>
        <time>2021-04-09T12:08:52.543Z</time>
      </trkpt>
      <trkpt lat="47.11721" lon="7.31099">
        <ele>433.05</ele>
        <time>2021-04-09T12:09:50.672Z</time>
      </trkpt>
      <trkpt lat="47.1174" lon="7.31102">
        <ele>432.67</ele>
        <time>2021-04-09T12:09:56.926Z</time>
      </trkpt>
      <trkpt lat="47.11748" lon="7.31103">
        <ele>432.59</ele>
        <time>2021-04-09T12:09:59.901Z</time>
      </trkpt>
      <trkpt lat="47.11747" lon="7.31103">
        <ele>432.59</ele>
        <time>2021-04-09T12:10:01.000Z</time>
      </trkpt>
      <trkpt lat="47.11762" lon="7.31105">
        <ele>432.52</ele>
        <time>2021-04-09T12:10:16.459Z</time>
      </trkpt>
      <trkpt lat="47.11784" lon="7.31107">
        <ele>432.92</ele>
        <time>2021-04-09T12:10:45.524Z</time>
      </trkpt>
      <trkpt lat="47.11812" lon="7.31107">
        <ele>433.24</ele>
        <time>2021-04-09T12:11:19.907Z</time>
      </trkpt>
      <trkpt lat="47.11825" lon="7.31105">
        <ele>433.31</ele>
        <time>2021-04-09T12:11:35.019Z</time>
      </trkpt>
      <trkpt lat="47.11836" lon="7.31103">
        <ele>433.07</ele>
        <time>2021-04-09T12:11:38.573Z</time>
      </trkpt>
      <trkpt lat="47.11889" lon="7.31088">
        <ele>432.79</ele>
        <time>2021-04-09T12:12:33.545Z</time>
      </trkpt>
      <trkpt lat="47.11903" lon="7.31083">
        <ele>432.81</ele>
        <time>2021-04-09T12:12:49.589Z</time>
      </trkpt>
      <trkpt lat="47.11921" lon="7.31078">
        <ele>432.84</ele>
        <time>2021-04-09T12:13:10.036Z</time>
      </trkpt>
      <trkpt lat="47.11938" lon="7.31072">
        <ele>432.72</ele>
        <time>2021-04-09T12:13:27.429Z</time>
      </trkpt>
      <trkpt lat="47.11971" lon="7.31061">
        <ele>432.89</ele>
        <time>2021-04-09T12:14:06.427Z</time>
      </trkpt>
      <trkpt lat="47.11983" lon="7.31059">
        <ele>432.73</ele>
        <time>2021-04-09T12:14:10.714Z</time>
      </trkpt>
      <trkpt lat="47.11992" lon="7.31058">
        <ele>432.72</ele>
        <time>2021-04-09T12:14:20.471Z</time>
      </trkpt>
      <trkpt lat="47.12003" lon="7.31058">
        <ele>432.85</ele>
        <time>2021-04-09T12:14:34.033Z</time>
      </trkpt>
      <trkpt lat="47.12014" lon="7.31059">
        <ele>432.79</ele>
        <time>2021-04-09T12:14:45.217Z</time>
      </trkpt>
      <trkpt lat="47.12023" lon="7.31062">
        <ele>432.53</ele>
        <time>2021-04-09T12:14:47.970Z</time>
      </trkpt>
      <trkpt lat="47.12032" lon="7.31065">
        <ele>432.6</ele>
        <time>2021-04-09T12:14:58.873Z</time>
      </trkpt>
      <trkpt lat="47.12043" lon="7.3107">
        <ele>432.38</ele>
        <time>2021-04-09T12:15:02.677Z</time>
      </trkpt>
      <trkpt lat="47.12048" lon="7.31073">
        <ele>432.41</ele>
        <time>2021-04-09T12:15:08.933Z</time>
      </trkpt>
      <trkpt lat="47.12064" lon="7.3108">
        <ele>432.21</ele>
        <time>2021-04-09T12:15:14.956Z</time>
      </trkpt>
      <trkpt lat="47.12082" lon="7.31089">
        <ele>432.13</ele>
        <time>2021-04-09T12:15:34.594Z</time>
      </trkpt>
      <trkpt lat="47.12094" lon="7.31094">
        <ele>432.1</ele>
        <time>2021-04-09T12:15:47.820Z</time>
      </trkpt>
      <trkpt lat="47.12103" lon="7.31096">
        <ele>432.14</ele>
        <time>2021-04-09T12:15:58.247Z</time>
      </trkpt>
      <trkpt lat="47.12113" lon="7.31098">
        <ele>432.04</ele>
        <time>2021-04-09T12:16:01.988Z</time>
      </trkpt>
      <trkpt lat="47.12124" lon="7.31099">
        <ele>431.93</ele>
        <time>2021-04-09T12:16:06.070Z</time>
      </trkpt>
      <trkpt lat="47.12134" lon="7.31098">
        <ele>431.96</ele>
        <time>2021-04-09T12:16:17.401Z</time>
      </trkpt>
      <trkpt lat="47.12147" lon="7.31096">
        <ele>431.82</ele>
        <time>2021-04-09T12:16:22.196Z</time>
      </trkpt>
      <trkpt lat="47.12157" lon="7.31094">
        <ele>431.86</ele>
        <time>2021-04-09T12:16:33.709Z</time>
      </trkpt>
      <trkpt lat="47.12167" lon="7.3109">
        <ele>431.68</ele>
        <time>2021-04-09T12:16:37.205Z</time>
      </trkpt>
      <trkpt lat="47.12179" lon="7.31084">
        <ele>431.86</ele>
        <time>2021-04-09T12:16:53.224Z</time>
      </trkpt>
      <trkpt lat="47.12189" lon="7.31077">
        <ele>431.98</ele>
        <time>2021-04-09T12:17:06.744Z</time>
      </trkpt>
      <trkpt lat="47.12198" lon="7.31069">
        <ele>431.8</ele>
        <time>2021-04-09T12:17:10.302Z</time>
      </trkpt>
      <trkpt lat="47.12206" lon="7.31062">
        <ele>431.69</ele>
        <time>2021-04-09T12:17:13.669Z</time>
      </trkpt>
      <trkpt lat="47.12215" lon="7.31052">
        <ele>431.58</ele>
        <time>2021-04-09T12:17:17.860Z</time>
      </trkpt>
      <trkpt lat="47.12223" lon="7.31042">
        <ele>431.7</ele>
        <time>2021-04-09T12:17:30.757Z</time>
      </trkpt>
      <trkpt lat="47.12233" lon="7.31025">
        <ele>431.71</ele>
        <time>2021-04-09T12:17:47.669Z</time>
      </trkpt>
      <trkpt lat="47.12241" lon="7.3101">
        <ele>431.87</ele>
        <time>2021-04-09T12:18:03.744Z</time>
      </trkpt>
      <trkpt lat="47.12247" lon="7.30998">
        <ele>431.74</ele>
        <time>2021-04-09T12:18:07.360Z</time>
      </trkpt>
      <trkpt lat="47.12252" lon="7.30986">
        <ele>432.13</ele>
        <time>2021-04-09T12:18:24.151Z</time>
      </trkpt>
      <trkpt lat="47.12255" lon="7.30978">
        <ele>432.51</ele>
        <time>2021-04-09T12:18:37.041Z</time>
      </trkpt>
      <trkpt lat="47.12324" lon="7.31076">
        <ele>432.76</ele>
        <time>2021-04-09T12:20:25.117Z</time>
      </trkpt>
      <trkpt lat="47.12324" lon="7.31075">
        <ele>432.76</ele>
        <time>2021-04-09T12:20:25.865Z</time>
      </trkpt>
      <trkpt lat="47.12337" lon="7.31093">
        <ele>433</ele>
        <time>2021-04-09T12:20:48.258Z</time>
      </trkpt>
      <trkpt lat="47.12373" lon="7.31145">
        <ele>432.73</ele>
        <time>2021-04-09T12:21:39.550Z</time>
      </trkpt>
      <trkpt lat="47.12389" lon="7.31169">
        <ele>432.41</ele>
        <time>2021-04-09T12:21:47.588Z</time>
      </trkpt>
      <trkpt lat="47.12416" lon="7.31206">
        <ele>432.51</ele>
        <time>2021-04-09T12:22:29.208Z</time>
      </trkpt>
      <trkpt lat="47.12445" lon="7.31249">
        <ele>432.27</ele>
        <time>2021-04-09T12:23:10.787Z</time>
      </trkpt>
      <trkpt lat="47.12491" lon="7.31313">
        <ele>432.3</ele>
        <time>2021-04-09T12:24:20.732Z</time>
      </trkpt>
      <trkpt lat="47.12551" lon="7.31399">
        <ele>432.41</ele>
        <time>2021-04-09T12:25:53.995Z</time>
      </trkpt>
      <trkpt lat="47.12524" lon="7.31438">
        <ele>432.73</ele>
        <time>2021-04-09T12:26:39.110Z</time>
      </trkpt>
      <trkpt lat="47.12514" lon="7.31451">
        <ele>432.78</ele>
        <time>2021-04-09T12:26:54.309Z</time>
      </trkpt>
      <trkpt lat="47.12511" lon="7.31457">
        <ele>432.77</ele>
        <time>2021-04-09T12:26:59.716Z</time>
      </trkpt>
      <trkpt lat="47.12508" lon="7.31464">
        <ele>432.82</ele>
        <time>2021-04-09T12:27:06.452Z</time>
      </trkpt>
      <trkpt lat="47.12513" lon="7.31475">
        <ele>432.4</ele>
        <time>2021-04-09T12:27:08.693Z</time>
      </trkpt>
      <trkpt lat="47.12529" lon="7.3151">
        <ele>432.34</ele>
        <time>2021-04-09T12:27:39.257Z</time>
      </trkpt>
      <trkpt lat="47.1254" lon="7.31533">
        <ele>432.45</ele>
        <time>2021-04-09T12:28:01.457Z</time>
      </trkpt>
      <trkpt lat="47.1257" lon="7.31517">
        <ele>432.25</ele>
        <time>2021-04-09T12:28:33.470Z</time>
      </trkpt>
      <trkpt lat="47.12585" lon="7.31509">
        <ele>432.32</ele>
        <time>2021-04-09T12:28:51.748Z</time>
      </trkpt>
      <trkpt lat="47.12585" lon="7.31509">
        <ele>432.32</ele>
        <time>2021-04-09T12:28:51.748Z</time>
      </trkpt>
      <trkpt lat="47.12672" lon="7.31464">
        <ele>432.38</ele>
        <time>2021-04-09T12:30:33.758Z</time>
      </trkpt>
      <trkpt lat="47.12705" lon="7.31447">
        <ele>432.3</ele>
        <time>2021-04-09T12:31:10.901Z</time>
      </trkpt>
      <trkpt lat="47.1273" lon="7.31434">
        <ele>432.31</ele>
        <time>2021-04-09T12:31:40.158Z</time>
      </trkpt>
      <trkpt lat="47.128" lon="7.31397">
        <ele>432.52</ele>
        <time>2021-04-09T12:33:04.114Z</time>
      </trkpt>
      <trkpt lat="47.12806" lon="7.31427">
        <ele>432.62</ele>
        <time>2021-04-09T12:33:28.557Z</time>
      </trkpt>
      <trkpt lat="47.12809" lon="7.31449">
        <ele>432.49</ele>
        <time>2021-04-09T12:33:34.323Z</time>
      </trkpt>
      <trkpt lat="47.12812" lon="7.31474">
        <ele>432.45</ele>
        <time>2021-04-09T12:33:52.661Z</time>
      </trkpt>
      <trkpt lat="47.12814" lon="7.31499">
        <ele>432.4</ele>
        <time>2021-04-09T12:34:10.684Z</time>
      </trkpt>
      <trkpt lat="47.12815" lon="7.31531">
        <ele>432.61</ele>
        <time>2021-04-09T12:34:36.966Z</time>
      </trkpt>
      <trkpt lat="47.12815" lon="7.31545">
        <ele>432.6</ele>
        <time>2021-04-09T12:34:47.272Z</time>
      </trkpt>
      <trkpt lat="47.12815" lon="7.31544">
        <ele>432.6</ele>
        <time>2021-04-09T12:34:48.020Z</time>
      </trkpt>
      <trkpt lat="47.12815" lon="7.31565">
        <ele>432.6</ele>
        <time>2021-04-09T12:35:03.728Z</time>
      </trkpt>
      <trkpt lat="47.12814" lon="7.31594">
        <ele>432.72</ele>
        <time>2021-04-09T12:35:26.728Z</time>
      </trkpt>
      <trkpt lat="47.12815" lon="7.3161">
        <ele>432.75</ele>
        <time>2021-04-09T12:35:39.057Z</time>
      </trkpt>
      <trkpt lat="47.12816" lon="7.31632">
        <ele>432.76</ele>
        <time>2021-04-09T12:35:55.651Z</time>
      </trkpt>
      <trkpt lat="47.12818" lon="7.31663">
        <ele>432.58</ele>
        <time>2021-04-09T12:36:03.656Z</time>
      </trkpt>
      <trkpt lat="47.12819" lon="7.31689">
        <ele>432.4</ele>
        <time>2021-04-09T12:36:10.203Z</time>
      </trkpt>
      <trkpt lat="47.12819" lon="7.31715">
        <ele>432.07</ele>
        <time>2021-04-09T12:36:16.077Z</time>
      </trkpt>
      <trkpt lat="47.12822" lon="7.3176">
        <ele>431.63</ele>
        <time>2021-04-09T12:36:26.852Z</time>
      </trkpt>
      <trkpt lat="47.12821" lon="7.31771">
        <ele>431.51</ele>
        <time>2021-04-09T12:36:29.445Z</time>
      </trkpt>
      <trkpt lat="47.1282" lon="7.31782">
        <ele>431.6</ele>
        <time>2021-04-09T12:36:38.764Z</time>
      </trkpt>
      <trkpt lat="47.12817" lon="7.31798">
        <ele>431.62</ele>
        <time>2021-04-09T12:36:51.383Z</time>
      </trkpt>
      <trkpt lat="47.12813" lon="7.31829">
        <ele>431.52</ele>
        <time>2021-04-09T12:37:13.412Z</time>
      </trkpt>
      <trkpt lat="47.12813" lon="7.31843">
        <ele>431.36</ele>
        <time>2021-04-09T12:37:16.647Z</time>
      </trkpt>
      <trkpt lat="47.12814" lon="7.3185">
        <ele>431.38</ele>
        <time>2021-04-09T12:37:22.207Z</time>
      </trkpt>
      <trkpt lat="47.12817" lon="7.31859">
        <ele>431.5</ele>
        <time>2021-04-09T12:37:31.144Z</time>
      </trkpt>
      <trkpt lat="47.12819" lon="7.31865">
        <ele>431.67</ele>
        <time>2021-04-09T12:37:38.746Z</time>
      </trkpt>
      <trkpt lat="47.12827" lon="7.31878">
        <ele>431.79</ele>
        <time>2021-04-09T12:37:53.189Z</time>
      </trkpt>
      <trkpt lat="47.12838" lon="7.31888">
        <ele>431.68</ele>
        <time>2021-04-09T12:37:58.075Z</time>
      </trkpt>
      <trkpt lat="47.12865" lon="7.31912">
        <ele>431.56</ele>
        <time>2021-04-09T12:38:30.856Z</time>
      </trkpt>
      <trkpt lat="47.12888" lon="7.31932">
        <ele>431.47</ele>
        <time>2021-04-09T12:38:58.796Z</time>
      </trkpt>
      <trkpt lat="47.12909" lon="7.3195">
        <ele>431.33</ele>
        <time>2021-04-09T12:39:23.356Z</time>
      </trkpt>
      <trkpt lat="47.12917" lon="7.31957">
        <ele>431.29</ele>
        <time>2021-04-09T12:39:32.960Z</time>
      </trkpt>
      <trkpt lat="47.12916" lon="7.31957">
        <ele>431.29</ele>
        <time>2021-04-09T12:39:34.059Z</time>
      </trkpt>
      <trkpt lat="47.12929" lon="7.31966">
        <ele>431.24</ele>
        <time>2021-04-09T12:39:49.058Z</time>
      </trkpt>
      <trkpt lat="47.12945" lon="7.31978">
        <ele>431.14</ele>
        <time>2021-04-09T12:40:07.255Z</time>
      </trkpt>
      <trkpt lat="47.12965" lon="7.31992">
        <ele>431.13</ele>
        <time>2021-04-09T12:40:31.442Z</time>
      </trkpt>
      <trkpt lat="47.12981" lon="7.32001">
        <ele>431.12</ele>
        <time>2021-04-09T12:40:50.110Z</time>
      </trkpt>
      <trkpt lat="47.12994" lon="7.3201">
        <ele>431.33</ele>
        <time>2021-04-09T12:41:08.351Z</time>
      </trkpt>
      <trkpt lat="47.12998" lon="7.32004">
        <ele>431.22</ele>
        <time>2021-04-09T12:41:10.236Z</time>
      </trkpt>
      <trkpt lat="47.12999" lon="7.32003">
        <ele>431.2</ele>
        <time>2021-04-09T12:41:10.648Z</time>
      </trkpt>
      <trkpt lat="47.13017" lon="7.31985">
        <ele>430.88</ele>
        <time>2021-04-09T12:41:18.235Z</time>
      </trkpt>
      <trkpt lat="47.1303" lon="7.31972">
        <ele>430.63</ele>
        <time>2021-04-09T12:41:23.634Z</time>
      </trkpt>
      <trkpt lat="47.13052" lon="7.31951">
        <ele>430.49</ele>
        <time>2021-04-09T12:41:50.295Z</time>
      </trkpt>
      <trkpt lat="47.13054" lon="7.31955">
        <ele>430.51</ele>
        <time>2021-04-09T12:41:54.221Z</time>
      </trkpt>
      <trkpt lat="47.13059" lon="7.31968">
        <ele>430.53</ele>
        <time>2021-04-09T12:42:05.596Z</time>
      </trkpt>
      <trkpt lat="47.13064" lon="7.31978">
        <ele>430.73</ele>
        <time>2021-04-09T12:42:17.451Z</time>
      </trkpt>
      <trkpt lat="47.13067" lon="7.31983">
        <ele>430.89</ele>
        <time>2021-04-09T12:42:24.818Z</time>
      </trkpt>
      <trkpt lat="47.13071" lon="7.31987">
        <ele>431.03</ele>
        <time>2021-04-09T12:42:32.055Z</time>
      </trkpt>
      <trkpt lat="47.13081" lon="7.31991">
        <ele>431</ele>
        <time>2021-04-09T12:42:42.965Z</time>
      </trkpt>
      <trkpt lat="47.1309" lon="7.31994">
        <ele>430.94</ele>
        <time>2021-04-09T12:42:52.192Z</time>
      </trkpt>
      <trkpt lat="47.13097" lon="7.31999">
        <ele>431.04</ele>
        <time>2021-04-09T12:43:01.890Z</time>
      </trkpt>
      <trkpt lat="47.13117" lon="7.32012">
        <ele>431.02</ele>
        <time>2021-04-09T12:43:25.601Z</time>
      </trkpt>
      <trkpt lat="47.1312" lon="7.32016">
        <ele>431.03</ele>
        <time>2021-04-09T12:43:30.157Z</time>
      </trkpt>
      <trkpt lat="47.13122" lon="7.32018">
        <ele>431.05</ele>
        <time>2021-04-09T12:43:33.034Z</time>
      </trkpt>
      <trkpt lat="47.13141" lon="7.32043">
        <ele>431.27</ele>
        <time>2021-04-09T12:44:03.476Z</time>
      </trkpt>
      <trkpt lat="47.13151" lon="7.32053">
        <ele>431.27</ele>
        <time>2021-04-09T12:44:16.774Z</time>
      </trkpt>
      <trkpt lat="47.13164" lon="7.32063">
        <ele>431.47</ele>
        <time>2021-04-09T12:44:35.207Z</time>
      </trkpt>
      <trkpt lat="47.13177" lon="7.32076">
        <ele>431.45</ele>
        <time>2021-04-09T12:44:52.163Z</time>
      </trkpt>
      <trkpt lat="47.13195" lon="7.32096">
        <ele>431.5</ele>
        <time>2021-04-09T12:45:17.484Z</time>
      </trkpt>
      <trkpt lat="47.13213" lon="7.32115">
        <ele>431.48</ele>
        <time>2021-04-09T12:45:41.516Z</time>
      </trkpt>
      <trkpt lat="47.13223" lon="7.32126">
        <ele>431.54</ele>
        <time>2021-04-09T12:45:55.880Z</time>
      </trkpt>
      <trkpt lat="47.13231" lon="7.32133">
        <ele>431.55</ele>
        <time>2021-04-09T12:46:06.218Z</time>
      </trkpt>
      <trkpt lat="47.13262" lon="7.32156">
        <ele>431.43</ele>
        <time>2021-04-09T12:46:42.476Z</time>
      </trkpt>
      <trkpt lat="47.13279" lon="7.32166">
        <ele>431.34</ele>
        <time>2021-04-09T12:47:01.197Z</time>
      </trkpt>
      <trkpt lat="47.13296" lon="7.32177">
        <ele>431.35</ele>
        <time>2021-04-09T12:47:21.720Z</time>
      </trkpt>
      <trkpt lat="47.13301" lon="7.32179">
        <ele>431.59</ele>
        <time>2021-04-09T12:47:31.447Z</time>
      </trkpt>
      <trkpt lat="47.13297" lon="7.32153">
        <ele>431.17</ele>
        <time>2021-04-09T12:47:37.162Z</time>
      </trkpt>
    </trkseg>
  </trk>
</gpx>